Wetterdaten: Mittwoch, 25.03.2020
Datum Zeit Temp. Aussen Temp. o. S. Temp +5cm Feuchte Auss Luftdruck Regen Sonnenschein Regendauer Solar Windben Empfang
25.03.2020 00:00 4,2 C 3,3 C 2,2 C 49 % 1029,6 hPa 0,0 l/m 0 min 0 min 0 W/m 0,0 km/h (0 Bft) 97,87 %
25.03.2020 00:02 4,2 C 3,3 C 2,2 C 50 % 1029,5 hPa 0,0 l/m 0 min 0 min 0 W/m 0,0 km/h (0 Bft) 95,56 %
25.03.2020 00:04 4,2 C 3,3 C 2,2 C 49 % 1029,6 hPa 0,0 l/m 0 min 0 min 0 W/m 0,0 km/h (0 Bft) 97,83 %
25.03.2020 00:08 4,2 C 3,3 C 2,2 C 49 % 1029,6 hPa 0,0 l/m 0 min 0 min 0 W/m 12,9 km/h (3 Bft) 97,87 %
25.03.2020 00:10 4,1 C 3,3 C 2,8 C 49 % 1029,5 hPa 0,0 l/m 0 min 0 min 0 W/m 0,0 km/h (0 Bft) 97,87 %
25.03.2020 00:12 4,1 C 3,3 C 2,2 C 49 % 1029,5 hPa 0,0 l/m 0 min 0 min 0 W/m 0,0 km/h (0 Bft) 97,87 %
25.03.2020 00:14 4,1 C 3,3 C 2,2 C 49 % 1029,5 hPa 0,0 l/m 0 min 0 min 0 W/m 0,0 km/h (0 Bft) 100,00 %
25.03.2020 00:16 4,1 C 3,3 C 2,2 C 49 % 1029,5 hPa 0,0 l/m 0 min 0 min 0 W/m 0,0 km/h (0 Bft) 100,00 %
25.03.2020 00:18 4,1 C 3,3 C 2,2 C 49 % 1029,5 hPa 0,0 l/m 0 min 0 min 0 W/m 0,0 km/h (0 Bft) 95,74 %
25.03.2020 00:20 4,1 C 3,3 C 2,2 C 49 % 1029,5 hPa 0,0 l/m 0 min 0 min 0 W/m 0,0 km/h (0 Bft) 100,00 %
25.03.2020 00:22 4,1 C 3,3 C 2,2 C 50 % 1029,5 hPa 0,0 l/m 0 min 0 min 0 W/m 0,0 km/h (0 Bft) 100,00 %
25.03.2020 00:24 4,1 C 3,3 C 2,2 C 49 % 1029,5 hPa 0,0 l/m 0 min 0 min 0 W/m 0,0 km/h (0 Bft) 100,00 %
25.03.2020 00:26 4,1 C 3,3 C 2,2 C 49 % 1029,5 hPa 0,0 l/m 0 min 0 min 0 W/m 0,0 km/h (0 Bft) 97,87 %
25.03.2020 00:28 4,1 C 2,8 C 2,2 C 49 % 1029,4 hPa 0,0 l/m 0 min 0 min 0 W/m 0,0 km/h (0 Bft) 97,83 %
25.03.2020 00:30 4,1 C 3,3 C 2,2 C 49 % 1029,4 hPa 0,0 l/m 0 min 0 min 0 W/m 16,1 km/h (3 Bft) 95,74 %
25.03.2020 00:32 4,1 C 3,3 C 2,2 C 49 % 1029,4 hPa 0,0 l/m 0 min 0 min 0 W/m 3,2 km/h (1 Bft) 97,87 %
25.03.2020 00:34 4,1 C 3,3 C 2,2 C 49 % 1029,4 hPa 0,0 l/m 0 min 0 min 0 W/m 3,2 km/h (1 Bft) 97,87 %
25.03.2020 00:36 4,1 C 3,3 C 2,2 C 49 % 1029,4 hPa 0,0 l/m 0 min 0 min 0 W/m 0,0 km/h (0 Bft) 97,87 %
25.03.2020 00:38 4,0 C 3,3 C 2,2 C 49 % 1029,4 hPa 0,0 l/m 0 min 0 min 0 W/m 12,9 km/h (3 Bft) 95,65 %
25.03.2020 00:40 4,0 C 3,3 C 2,2 C 49 % 1029,4 hPa 0,0 l/m 0 min 0 min 0 W/m 12,9 km/h (3 Bft) 97,87 %
25.03.2020 00:42 4,0 C 3,3 C 2,2 C 49 % 1029,3 hPa 0,0 l/m 0 min 0 min 0 W/m 0,0 km/h (0 Bft) 97,87 %
25.03.2020 00:44 4,0 C 3,3 C 2,2 C 49 % 1029,3 hPa 0,0 l/m 0 min 0 min 0 W/m 0,0 km/h (0 Bft) 97,87 %
25.03.2020 00:46 4,0 C 3,3 C 2,8 C 49 % 1029,3 hPa 0,0 l/m 0 min 0 min 0 W/m 16,1 km/h (3 Bft) 95,74 %
25.03.2020 00:48 4,0 C 3,3 C 2,8 C 49 % 1029,2 hPa 0,0 l/m 0 min 0 min 0 W/m 6,4 km/h (2 Bft) 95,74 %
25.03.2020 00:50 4,0 C 3,3 C 2,8 C 49 % 1029,3 hPa 0,0 l/m 0 min 0 min 0 W/m 0,0 km/h (0 Bft) 95,65 %
25.03.2020 00:52 4,0 C 3,3 C 2,8 C 49 % 1029,2 hPa 0,0 l/m 0 min 0 min 0 W/m 12,9 km/h (3 Bft) 97,87 %
25.03.2020 00:54 4,0 C 3,3 C 2,8 C 49 % 1029,2 hPa 0,0 l/m 0 min 0 min 0 W/m 6,4 km/h (2 Bft) 95,74 %
25.03.2020 00:56 4,0 C 3,3 C 2,2 C 49 % 1029,3 hPa 0,0 l/m 0 min 0 min 0 W/m 12,9 km/h (3 Bft) 57,45 %
25.03.2020 00:58 4,0 C 3,3 C 2,2 C 49 % 1029,2 hPa 0,0 l/m 0 min 0 min 0 W/m 12,9 km/h (3 Bft) 95,74 %
25.03.2020 01:00 4,0 C 3,3 C 2,2 C 49 % 1029,2 hPa 0,0 l/m 0 min 0 min 0 W/m 6,4 km/h (2 Bft) 93,62 %
25.03.2020 01:02 4,0 C 3,3 C 2,2 C 49 % 1029,2 hPa 0,0 l/m 0 min 0 min 0 W/m 0,0 km/h (0 Bft) 95,65 %
25.03.2020 01:04 4,0 C 3,3 C 2,2 C 49 % 1029,2 hPa 0,0 l/m 0 min 0 min 0 W/m 16,1 km/h (3 Bft) 95,74 %
25.03.2020 01:06 3,9 C 3,3 C 2,2 C 49 % 1029,2 hPa 0,0 l/m 0 min 0 min 0 W/m 9,7 km/h (2 Bft) 97,87 %
25.03.2020 01:08 3,9 C 3,3 C 2,2 C 49 % 1029,2 hPa 0,0 l/m 0 min 0 min 0 W/m 12,9 km/h (3 Bft) 97,87 %
25.03.2020 01:10 3,9 C 3,3 C 2,2 C 49 % 1029,2 hPa 0,0 l/m 0 min 0 min 0 W/m 16,1 km/h (3 Bft) 95,74 %
25.03.2020 01:12 3,9 C 3,3 C 2,2 C 49 % 1029,2 hPa 0,0 l/m 0 min 0 min 0 W/m 12,9 km/h (3 Bft) 95,74 %
25.03.2020 01:14 3,9 C 2,8 C 2,2 C 49 % 1029,1 hPa 0,0 l/m 0 min 0 min 0 W/m 6,4 km/h (2 Bft) 97,83 %
25.03.2020 01:16 3,9 C 2,8 C 2,2 C 50 % 1029,1 hPa 0,0 l/m 0 min 0 min 0 W/m 6,4 km/h (2 Bft) 95,74 %
25.03.2020 01:18 3,9 C 2,8 C 2,2 C 50 % 1029,1 hPa 0,0 l/m 0 min 0 min 0 W/m 0,0 km/h (0 Bft) 97,87 %
25.03.2020 01:20 3,8 C 2,8 C 2,2 C 50 % 1029,2 hPa 0,0 l/m 0 min 0 min 0 W/m 3,2 km/h (1 Bft) 97,87 %
25.03.2020 01:22 3,8 C 2,8 C 2,2 C 50 % 1029,2 hPa 0,0 l/m 0 min 0 min 0 W/m 0,0 km/h (0 Bft) 95,74 %
25.03.2020 01:24 3,8 C 2,8 C 2,2 C 50 % 1029,2 hPa 0,0 l/m 0 min 0 min 0 W/m 0,0 km/h (0 Bft) 95,65 %
25.03.2020 01:26 3,8 C 2,8 C 2,2 C 50 % 1029,1 hPa 0,0 l/m 0 min 0 min 0 W/m 0,0 km/h (0 Bft) 97,87 %
25.03.2020 01:28 3,8 C 2,8 C 1,7 C 51 % 1029,1 hPa 0,0 l/m 0 min 0 min 0 W/m 0,0 km/h (0 Bft) 93,62 %
25.03.2020 01:30 3,7 C 2,8 C 1,7 C 51 % 1029,1 hPa 0,0 l/m 0 min 0 min 0 W/m 0,0 km/h (0 Bft) 95,74 %
25.03.2020 01:32 3,7 C 2,8 C 1,7 C 51 % 1029,1 hPa 0,0 l/m 0 min 0 min 0 W/m 0,0 km/h (0 Bft) 97,87 %
25.03.2020 01:34 3,6 C 2,8 C 1,7 C 51 % 1029,1 hPa 0,0 l/m 0 min 0 min 0 W/m 0,0 km/h (0 Bft) 95,74 %
25.03.2020 01:36 3,6 C 2,2 C 1,7 C 51 % 1029,1 hPa 0,0 l/m 0 min 0 min 0 W/m 0,0 km/h (0 Bft) 93,62 %
25.03.2020 01:38 3,6 C 2,2 C 1,7 C 51 % 1029,1 hPa 0,0 l/m 0 min 0 min 0 W/m 0,0 km/h (0 Bft) 97,83 %
25.03.2020 01:40 3,5 C 2,2 C 1,7 C 52 % 1029,1 hPa 0,0 l/m 0 min 0 min 0 W/m 0,0 km/h (0 Bft) 97,87 %
25.03.2020 01:42 3,4 C 2,2 C 1,7 C 52 % 1029,1 hPa 0,0 l/m 0 min 0 min 0 W/m 0,0 km/h (0 Bft) 97,87 %
25.03.2020 01:44 3,4 C 2,2 C 1,7 C 52 % 1029,1 hPa 0,0 l/m 0 min 0 min 0 W/m 0,0 km/h (0 Bft) 95,74 %
25.03.2020 01:46 3,4 C 2,2 C 1,7 C 51 % 1029,1 hPa 0,0 l/m 0 min 0 min 0 W/m 0,0 km/h (0 Bft) 95,74 %
25.03.2020 01:48 3,3 C 2,2 C 1,7 C 52 % 1029,1 hPa 0,0 l/m 0 min 0 min 0 W/m 0,0 km/h (0 Bft) 97,83 %
25.03.2020 01:50 3,3 C 2,2 C 1,7 C 52 % 1029,1 hPa 0,0 l/m 0 min 0 min 0 W/m 3,2 km/h (1 Bft) 57,45 %
25.03.2020 01:52 3,3 C 2,2 C 1,7 C 52 % 1029,1 hPa 0,0 l/m 0 min 0 min 0 W/m 0,0 km/h (0 Bft) 93,18 %
25.03.2020 01:54 3,3 C 2,2 C 1,7 C 52 % 1029,1 hPa 0,0 l/m 0 min 0 min 0 W/m 0,0 km/h (0 Bft) 95,74 %
25.03.2020 01:56 3,2 C 2,2 C 1,7 C 52 % 1029,1 hPa 0,0 l/m 0 min 0 min 0 W/m 0,0 km/h (0 Bft) 95,74 %
25.03.2020 01:58 3,2 C 2,2 C 1,7 C 52 % 1029,1 hPa 0,0 l/m 0 min 0 min 0 W/m 0,0 km/h (0 Bft) 95,74 %
25.03.2020 02:00 3,2 C 2,2 C 1,7 C 52 % 1029,1 hPa 0,0 l/m 0 min 0 min 0 W/m 0,0 km/h (0 Bft) 95,65 %
25.03.2020 02:02 3,2 C 2,2 C 1,7 C 53 % 1029,1 hPa 0,0 l/m 0 min 0 min 0 W/m 0,0 km/h (0 Bft) 97,87 %
25.03.2020 02:04 3,2 C 2,2 C 1,7 C 52 % 1029,1 hPa 0,0 l/m 0 min 0 min 0 W/m 0,0 km/h (0 Bft) 97,87 %
25.03.2020 02:06 3,1 C 2,2 C 1,7 C 53 % 1029,1 hPa 0,0 l/m 0 min 0 min 0 W/m 0,0 km/h (0 Bft) 97,87 %
25.03.2020 02:08 3,1 C 2,2 C 1,7 C 53 % 1029,1 hPa 0,0 l/m 0 min 0 min 0 W/m 0,0 km/h (0 Bft) 97,87 %
25.03.2020 02:10 3,1 C 2,2 C 1,7 C 53 % 1029,1 hPa 0,0 l/m 0 min 0 min 0 W/m 0,0 km/h (0 Bft) 97,87 %
25.03.2020 02:12 3,1 C 2,2 C 1,7 C 53 % 1029,2 hPa 0,0 l/m 0 min 0 min 0 W/m 0,0 km/h (0 Bft) 97,83 %
25.03.2020 02:14 3,0 C 2,2 C 1,1 C 53 % 1029,2 hPa 0,0 l/m 0 min 0 min 0 W/m 0,0 km/h (0 Bft) 97,87 %
25.03.2020 02:16 3,0 C 2,2 C 1,1 C 53 % 1029,2 hPa 0,0 l/m 0 min 0 min 0 W/m 0,0 km/h (0 Bft) 97,87 %
25.03.2020 02:18 3,0 C 2,2 C 1,1 C 53 % 1029,2 hPa 0,0 l/m 0 min 0 min 0 W/m 0,0 km/h (0 Bft) 100,00 %
25.03.2020 02:20 2,9 C 2,2 C 1,1 C 53 % 1029,1 hPa 0,0 l/m 0 min 0 min 0 W/m 0,0 km/h (0 Bft) 100,00 %
25.03.2020 02:22 2,9 C 2,2 C 1,1 C 53 % 1029,1 hPa 0,0 l/m 0 min 0 min 0 W/m 0,0 km/h (0 Bft) 100,00 %
25.03.2020 02:24 2,9 C 2,2 C 1,1 C 53 % 1029,1 hPa 0,0 l/m 0 min 0 min 0 W/m 0,0 km/h (0 Bft) 100,00 %
25.03.2020 02:26 2,9 C 2,2 C 1,1 C 53 % 1029,1 hPa 0,0 l/m 0 min 0 min 0 W/m 0,0 km/h (0 Bft) 97,87 %
25.03.2020 02:28 2,9 C 2,2 C 1,1 C 52 % 1029,1 hPa 0,0 l/m 0 min 0 min 0 W/m 0,0 km/h (0 Bft) 97,87 %
25.03.2020 02:30 2,9 C 2,2 C 1,1 C 52 % 1029,1 hPa 0,0 l/m 0 min 0 min 0 W/m 0,0 km/h (0 Bft) 97,87 %
25.03.2020 02:32 2,9 C 2,2 C 1,1 C 52 % 1029,1 hPa 0,0 l/m 0 min 0 min 0 W/m 0,0 km/h (0 Bft) 100,00 %
25.03.2020 02:34 2,9 C 2,2 C 1,1 C 52 % 1029,1 hPa 0,0 l/m 0 min 0 min 0 W/m 0,0 km/h (0 Bft) 97,87 %
25.03.2020 02:36 2,9 C 2,2 C 1,7 C 52 % 1029,1 hPa 0,0 l/m 0 min 0 min 0 W/m 0,0 km/h (0 Bft) 100,00 %
25.03.2020 02:38 2,9 C 2,2 C 1,7 C 52 % 1029,1 hPa 0,0 l/m 0 min 0 min 0 W/m 0,0 km/h (0 Bft) 100,00 %
25.03.2020 02:40 2,9 C 2,2 C 1,7 C 52 % 1029,1 hPa 0,0 l/m 0 min 0 min 0 W/m 0,0 km/h (0 Bft) 97,87 %
25.03.2020 02:42 2,9 C 2,2 C 1,7 C 52 % 1029,1 hPa 0,0 l/m 0 min 0 min 0 W/m 0,0 km/h (0 Bft) 100,00 %
25.03.2020 02:44 2,9 C 2,2 C 1,1 C 52 % 1029,1 hPa 0,0 l/m 0 min 0 min 0 W/m 0,0 km/h (0 Bft) 100,00 %
25.03.2020 02:46 2,9 C 2,2 C 1,1 C 52 % 1029,1 hPa 0,0 l/m 0 min 0 min 0 W/m 0,0 km/h (0 Bft) 100,00 %
25.03.2020 02:48 2,9 C 2,2 C 1,1 C 52 % 1029,0 hPa 0,0 l/m 0 min 0 min 0 W/m 0,0 km/h (0 Bft) 100,00 %
25.03.2020 02:50 2,9 C 2,2 C 1,1 C 52 % 1029,0 hPa 0,0 l/m 0 min 0 min 0 W/m 0,0 km/h (0 Bft) 100,00 %
25.03.2020 02:52 2,9 C 2,2 C 1,1 C 52 % 1029,0 hPa 0,0 l/m 0 min 0 min 0 W/m 0,0 km/h (0 Bft) 100,00 %
25.03.2020 02:54 2,9 C 2,2 C 1,1 C 52 % 1029,0 hPa 0,0 l/m 0 min 0 min 0 W/m 0,0 km/h (0 Bft) 100,00 %
25.03.2020 02:56 2,8 C 1,7 C 1,1 C 52 % 1029,0 hPa 0,0 l/m 0 min 0 min 0 W/m 0,0 km/h (0 Bft) 97,87 %
25.03.2020 02:58 2,8 C 2,2 C 1,1 C 52 % 1029,1 hPa 0,0 l/m 0 min 0 min 0 W/m 0,0 km/h (0 Bft) 100,00 %
25.03.2020 03:00 2,8 C 2,2 C 1,1 C 52 % 1029,0 hPa 0,0 l/m 0 min 0 min 0 W/m 0,0 km/h (0 Bft) 100,00 %
25.03.2020 03:02 2,8 C 2,2 C 1,1 C 52 % 1029,1 hPa 0,0 l/m 0 min 0 min 0 W/m 0,0 km/h (0 Bft) 97,87 %
25.03.2020 03:04 2,8 C 2,2 C 1,1 C 52 % 1029,0 hPa 0,0 l/m 0 min 0 min 0 W/m 0,0 km/h (0 Bft) 100,00 %
25.03.2020 03:06 2,8 C 2,2 C 1,1 C 52 % 1029,0 hPa 0,0 l/m 0 min 0 min 0 W/m 0,0 km/h (0 Bft) 100,00 %
25.03.2020 03:08 2,8 C 2,2 C 1,1 C 52 % 1029,0 hPa 0,0 l/m 0 min 0 min 0 W/m 0,0 km/h (0 Bft) 97,87 %
25.03.2020 03:10 2,8 C 1,7 C 1,1 C 52 % 1029,0 hPa 0,0 l/m 0 min 0 min 0 W/m 0,0 km/h (0 Bft) 97,83 %
25.03.2020 03:12 2,8 C 1,7 C 1,1 C 52 % 1029,0 hPa 0,0 l/m 0 min 0 min 0 W/m 0,0 km/h (0 Bft) 100,00 %
25.03.2020 03:14 2,8 C 1,7 C 1,1 C 53 % 1028,9 hPa 0,0 l/m 0 min 0 min 0 W/m 0,0 km/h (0 Bft) 100,00 %
25.03.2020 03:16 2,8 C 1,7 C 0,6 C 53 % 1028,8 hPa 0,0 l/m 0 min 0 min 0 W/m 0,0 km/h (0 Bft) 95,74 %
25.03.2020 03:18 2,7 C 1,7 C 0,6 C 53 % 1028,9 hPa 0,0 l/m 0 min 0 min 0 W/m 0,0 km/h (0 Bft) 100,00 %
25.03.2020 03:23 2,7 C 1,7 C 0,6 C 53 % 1028,9 hPa 0,0 l/m 0 min 0 min 0 W/m 0,0 km/h (0 Bft) 98,36 %
25.03.2020 03:24 2,7 C 1,7 C 0,6 C 53 % 1028,9 hPa 0,0 l/m 0 min 0 min 0 W/m 0,0 km/h (0 Bft) 100,00 %
25.03.2020 03:26 2,6 C 1,7 C 0,6 C 53 % 1028,9 hPa 0,0 l/m 0 min 0 min 0 W/m 0,0 km/h (0 Bft) 97,87 %
25.03.2020 03:28 2,6 C 1,7 C 0,6 C 52 % 1028,9 hPa 0,0 l/m 0 min 0 min 0 W/m 0,0 km/h (0 Bft) 97,87 %
25.03.2020 03:30 2,6 C 2,2 C 0,6 C 52 % 1028,9 hPa 0,0 l/m 0 min 0 min 0 W/m 0,0 km/h (0 Bft) 100,00 %
25.03.2020 03:32 2,6 C 2,2 C 0,6 C 52 % 1028,9 hPa 0,0 l/m 0 min 0 min 0 W/m 0,0 km/h (0 Bft) 100,00 %
25.03.2020 03:34 2,6 C 2,2 C 1,1 C 52 % 1028,9 hPa 0,0 l/m 0 min 0 min 0 W/m 12,9 km/h (3 Bft) 100,00 %
25.03.2020 03:36 2,6 C 2,2 C 1,1 C 52 % 1028,9 hPa 0,0 l/m 0 min 0 min 0 W/m 16,1 km/h (3 Bft) 100,00 %
25.03.2020 03:38 2,6 C 1,7 C 1,1 C 52 % 1029,0 hPa 0,0 l/m 0 min 0 min 0 W/m 0,0 km/h (0 Bft) 100,00 %
25.03.2020 03:40 2,6 C 1,7 C 1,1 C 53 % 1029,0 hPa 0,0 l/m 0 min 0 min 0 W/m 3,2 km/h (1 Bft) 100,00 %
25.03.2020 03:42 2,6 C 1,7 C 1,1 C 53 % 1028,9 hPa 0,0 l/m 0 min 0 min 0 W/m 3,2 km/h (1 Bft) 100,00 %
25.03.2020 03:44 2,6 C 1,7 C 1,1 C 53 % 1029,0 hPa 0,0 l/m 0 min 0 min 0 W/m 0,0 km/h (0 Bft) 97,83 %
25.03.2020 03:46 2,6 C 1,7 C 1,1 C 53 % 1029,0 hPa 0,0 l/m 0 min 0 min 0 W/m 0,0 km/h (0 Bft) 97,87 %
25.03.2020 03:48 2,6 C 1,7 C 1,1 C 53 % 1028,9 hPa 0,0 l/m 0 min 0 min 0 W/m 0,0 km/h (0 Bft) 95,74 %
25.03.2020 03:50 2,6 C 1,7 C 0,6 C 53 % 1028,9 hPa 0,0 l/m 0 min 0 min 0 W/m 0,0 km/h (0 Bft) 97,87 %
25.03.2020 03:52 2,6 C 1,7 C 1,1 C 53 % 1028,9 hPa 0,0 l/m 0 min 0 min 0 W/m 0,0 km/h (0 Bft) 97,87 %
25.03.2020 03:54 2,6 C 1,7 C 1,1 C 53 % 1028,9 hPa 0,0 l/m 0 min 0 min 0 W/m 0,0 km/h (0 Bft) 97,87 %
25.03.2020 03:56 2,5 C 1,7 C 0,6 C 53 % 1028,9 hPa 0,0 l/m 0 min 0 min 0 W/m 0,0 km/h (0 Bft) 93,48 %
25.03.2020 03:58 2,5 C 1,7 C 0,6 C 53 % 1028,9 hPa 0,0 l/m 0 min 0 min 0 W/m 0,0 km/h (0 Bft) 93,62 %
25.03.2020 04:00 2,5 C 1,1 C 0,6 C 53 % 1028,9 hPa 0,0 l/m 0 min 0 min 0 W/m 0,0 km/h (0 Bft) 95,74 %
25.03.2020 04:02 2,4 C 1,1 C 0,6 C 53 % 1028,9 hPa 0,0 l/m 0 min 0 min 0 W/m 0,0 km/h (0 Bft) 100,00 %
25.03.2020 04:04 2,4 C 1,1 C 0,0 C 53 % 1028,8 hPa 0,0 l/m 0 min 0 min 0 W/m 0,0 km/h (0 Bft) 95,74 %
25.03.2020 04:06 2,4 C 1,1 C 0,0 C 53 % 1028,9 hPa 0,0 l/m 0 min 0 min 0 W/m 0,0 km/h (0 Bft) 93,62 %
25.03.2020 04:08 2,3 C 1,1 C 0,0 C 54 % 1028,9 hPa 0,0 l/m 0 min 0 min 0 W/m 3,2 km/h (1 Bft) 93,48 %
25.03.2020 04:10 2,3 C 0,6 C 0,0 C 54 % 1028,9 hPa 0,0 l/m 0 min 0 min 0 W/m 3,2 km/h (1 Bft) 91,49 %
25.03.2020 04:12 2,3 C 0,6 C 0,0 C 54 % 1028,9 hPa 0,0 l/m 0 min 0 min 0 W/m 0,0 km/h (0 Bft) 93,62 %
25.03.2020 04:14 2,3 C 0,6 C -0,6 C 54 % 1028,9 hPa 0,0 l/m 0 min 0 min 0 W/m 0,0 km/h (0 Bft) 89,36 %
25.03.2020 04:16 2,2 C 0,0 C -0,6 C 54 % 1028,9 hPa 0,0 l/m 0 min 0 min 0 W/m 0,0 km/h (0 Bft) 93,62 %
25.03.2020 04:18 2,2 C 0,0 C -0,6 C 55 % 1028,9 hPa 0,0 l/m 0 min 0 min 0 W/m 3,2 km/h (1 Bft) 93,62 %
25.03.2020 04:20 2,1 C 0,0 C -1,1 C 55 % 1028,9 hPa 0,0 l/m 0 min 0 min 0 W/m 0,0 km/h (0 Bft) 95,65 %
25.03.2020 04:22 2,1 C -0,6 C -1,1 C 55 % 1028,9 hPa 0,0 l/m 0 min 0 min 0 W/m 0,0 km/h (0 Bft) 93,62 %
25.03.2020 04:24 2,0 C -0,6 C -1,1 C 55 % 1028,9 hPa 0,0 l/m 0 min 0 min 0 W/m 0,0 km/h (0 Bft) 93,62 %
25.03.2020 04:26 1,9 C -0,6 C -1,7 C 56 % 1028,9 hPa 0,0 l/m 0 min 0 min 0 W/m 3,2 km/h (1 Bft) 93,62 %
25.03.2020 04:28 1,9 C -0,6 C -1,7 C 56 % 1028,9 hPa 0,0 l/m 0 min 0 min 0 W/m 0,0 km/h (0 Bft) 91,49 %
25.03.2020 04:30 1,8 C -0,6 C -1,7 C 56 % 1028,9 hPa 0,0 l/m 0 min 0 min 0 W/m 0,0 km/h (0 Bft) 93,48 %
25.03.2020 04:32 1,8 C -0,6 C -1,7 C 56 % 1028,9 hPa 0,0 l/m 0 min 0 min 0 W/m 0,0 km/h (0 Bft) 93,62 %
25.03.2020 04:34 1,7 C -0,6 C -1,7 C 56 % 1028,9 hPa 0,0 l/m 0 min 0 min 0 W/m 0,0 km/h (0 Bft) 93,62 %
25.03.2020 04:36 1,6 C -1,1 C -1,7 C 57 % 1028,9 hPa 0,0 l/m 0 min 0 min 0 W/m 0,0 km/h (0 Bft) 93,62 %
25.03.2020 04:38 1,6 C -0,6 C -2,2 C 57 % 1028,9 hPa 0,0 l/m 0 min 0 min 0 W/m 0,0 km/h (0 Bft) 93,62 %
25.03.2020 04:40 1,4 C -0,6 C -2,2 C 57 % 1028,9 hPa 0,0 l/m 0 min 0 min 0 W/m 0,0 km/h (0 Bft) 97,87 %
25.03.2020 04:42 1,3 C -0,6 C -2,2 C 57 % 1028,9 hPa 0,0 l/m 0 min 0 min 0 W/m 0,0 km/h (0 Bft) 95,65 %
25.03.2020 04:44 1,3 C 0,0 C -2,2 C 58 % 1028,9 hPa 0,0 l/m 0 min 0 min 0 W/m 0,0 km/h (0 Bft) 97,87 %
25.03.2020 04:46 1,2 C 0,0 C -1,7 C 58 % 1028,9 hPa 0,0 l/m 0 min 0 min 0 W/m 0,0 km/h (0 Bft) 95,74 %
25.03.2020 04:48 1,1 C 0,0 C -1,7 C 58 % 1028,9 hPa 0,0 l/m 0 min 0 min 0 W/m 3,2 km/h (1 Bft) 97,87 %
25.03.2020 04:50 1,1 C 0,6 C -1,1 C 58 % 1028,9 hPa 0,0 l/m 0 min 0 min 0 W/m 3,2 km/h (1 Bft) 97,87 %
25.03.2020 04:52 1,1 C 0,6 C -0,6 C 58 % 1028,9 hPa 0,0 l/m 0 min 0 min 0 W/m 0,0 km/h (0 Bft) 97,87 %
25.03.2020 04:54 1,1 C 0,6 C -0,6 C 58 % 1028,9 hPa 0,0 l/m 0 min 0 min 0 W/m 0,0 km/h (0 Bft) 95,65 %
25.03.2020 04:56 1,1 C 0,6 C -0,6 C 58 % 1028,9 hPa 0,0 l/m 0 min 0 min 0 W/m 0,0 km/h (0 Bft) 97,87 %
25.03.2020 04:58 1,1 C 0,6 C -0,6 C 58 % 1028,9 hPa 0,0 l/m 0 min 0 min 0 W/m 3,2 km/h (1 Bft) 97,87 %
25.03.2020 05:00 1,1 C 0,6 C -0,6 C 58 % 1028,9 hPa 0,0 l/m 0 min 0 min 0 W/m 0,0 km/h (0 Bft) 97,87 %
25.03.2020 05:02 1,1 C 0,6 C -0,6 C 58 % 1028,9 hPa 0,0 l/m 0 min 0 min 0 W/m 0,0 km/h (0 Bft) 97,87 %
25.03.2020 05:04 1,1 C 0,0 C -0,6 C 58 % 1028,9 hPa 0,0 l/m 0 min 0 min 0 W/m 3,2 km/h (1 Bft) 95,56 %
25.03.2020 05:06 1,1 C 0,0 C -1,1 C 58 % 1028,9 hPa 0,0 l/m 0 min 0 min 0 W/m 0,0 km/h (0 Bft) 97,87 %
25.03.2020 05:08 1,1 C 0,0 C -1,1 C 58 % 1028,9 hPa 0,0 l/m 0 min 0 min 0 W/m 3,2 km/h (1 Bft) 97,87 %
25.03.2020 05:10 1,1 C 0,0 C -1,1 C 58 % 1028,9 hPa 0,0 l/m 0 min 0 min 0 W/m 0,0 km/h (0 Bft) 97,83 %
25.03.2020 05:12 1,1 C -0,6 C -1,7 C 58 % 1028,9 hPa 0,0 l/m 0 min 0 min 0 W/m 0,0 km/h (0 Bft) 95,74 %
25.03.2020 05:14 1,1 C -0,6 C -1,7 C 58 % 1028,9 hPa 0,0 l/m 0 min 0 min 0 W/m 0,0 km/h (0 Bft) 100,00 %
25.03.2020 05:16 1,0 C -0,6 C -1,7 C 58 % 1028,9 hPa 0,0 l/m 0 min 0 min 0 W/m 0,0 km/h (0 Bft) 100,00 %
25.03.2020 05:18 1,0 C -0,6 C -1,7 C 58 % 1028,9 hPa 0,0 l/m 0 min 0 min 0 W/m 0,0 km/h (0 Bft) 100,00 %
25.03.2020 05:20 0,9 C -0,6 C -1,7 C 58 % 1028,9 hPa 0,0 l/m 0 min 0 min 0 W/m 3,2 km/h (1 Bft) 100,00 %
25.03.2020 05:22 0,9 C 0,0 C -1,7 C 58 % 1028,9 hPa 0,0 l/m 0 min 0 min 0 W/m 0,0 km/h (0 Bft) 100,00 %
25.03.2020 05:24 0,9 C -0,6 C -1,7 C 58 % 1028,9 hPa 0,0 l/m 0 min 0 min 0 W/m 0,0 km/h (0 Bft) 100,00 %
25.03.2020 05:26 0,9 C 0,0 C -1,7 C 58 % 1028,9 hPa 0,0 l/m 0 min 0 min 0 W/m 6,4 km/h (2 Bft) 100,00 %
25.03.2020 05:28 0,8 C 0,0 C -1,7 C 58 % 1028,9 hPa 0,0 l/m 0 min 0 min 0 W/m 3,2 km/h (1 Bft) 100,00 %
25.03.2020 05:30 0,8 C 0,0 C -1,7 C 58 % 1028,9 hPa 0,0 l/m 0 min 0 min 0 W/m 0,0 km/h (0 Bft) 100,00 %
25.03.2020 05:32 0,8 C 0,0 C -1,1 C 58 % 1028,9 hPa 0,0 l/m 0 min 0 min 0 W/m 0,0 km/h (0 Bft) 97,87 %
25.03.2020 05:34 0,8 C 0,6 C -1,1 C 58 % 1028,8 hPa 0,0 l/m 0 min 0 min 0 W/m 0,0 km/h (0 Bft) 100,00 %
25.03.2020 05:36 0,8 C 0,0 C -1,1 C 57 % 1028,8 hPa 0,0 l/m 0 min 0 min 0 W/m 0,0 km/h (0 Bft) 97,83 %
25.03.2020 05:38 0,8 C 0,0 C -1,1 C 58 % 1028,8 hPa 0,0 l/m 0 min 0 min 0 W/m 0,0 km/h (0 Bft) 100,00 %
25.03.2020 05:40 0,8 C 0,0 C -1,1 C 58 % 1028,8 hPa 0,0 l/m 0 min 0 min 0 W/m 0,0 km/h (0 Bft) 100,00 %
25.03.2020 05:42 0,8 C 0,0 C -1,1 C 57 % 1028,8 hPa 0,0 l/m 0 min 0 min 0 W/m 0,0 km/h (0 Bft) 100,00 %
25.03.2020 05:44 0,8 C 0,0 C -1,1 C 57 % 1028,7 hPa 0,0 l/m 0 min 0 min 0 W/m 0,0 km/h (0 Bft) 100,00 %
25.03.2020 05:46 0,8 C 0,0 C -1,1 C 57 % 1028,7 hPa 0,0 l/m 0 min 0 min 0 W/m 0,0 km/h (0 Bft) 100,00 %
25.03.2020 05:48 0,8 C 0,0 C -1,7 C 57 % 1028,7 hPa 0,0 l/m 0 min 0 min 0 W/m 0,0 km/h (0 Bft) 100,00 %
25.03.2020 05:50 0,8 C -0,6 C -1,7 C 57 % 1028,6 hPa 0,0 l/m 0 min 0 min 0 W/m 0,0 km/h (0 Bft) 100,00 %
25.03.2020 05:52 0,8 C -0,6 C -1,7 C 57 % 1028,6 hPa 0,0 l/m 0 min 0 min 0 W/m 0,0 km/h (0 Bft) 100,00 %
25.03.2020 05:54 0,8 C -0,6 C -2,2 C 58 % 1028,6 hPa 0,0 l/m 0 min 0 min 0 W/m 0,0 km/h (0 Bft) 100,00 %
25.03.2020 05:56 0,7 C -1,1 C -2,2 C 58 % 1028,7 hPa 0,0 l/m 0 min 0 min 0 W/m 0,0 km/h (0 Bft) 100,00 %
25.03.2020 05:58 0,7 C -1,1 C -2,2 C 58 % 1028,7 hPa 0,0 l/m 0 min 0 min 0 W/m 0,0 km/h (0 Bft) 95,74 %
25.03.2020 06:00 0,7 C -1,1 C -2,2 C 58 % 1028,6 hPa 0,0 l/m 0 min 0 min 0 W/m 0,0 km/h (0 Bft) 100,00 %
25.03.2020 06:02 0,6 C -1,1 C -2,2 C 58 % 1028,6 hPa 0,0 l/m 0 min 0 min 0 W/m 0,0 km/h (0 Bft) 97,87 %
25.03.2020 06:04 0,6 C -1,1 C -2,2 C 58 % 1028,6 hPa 0,0 l/m 0 min 0 min 0 W/m 0,0 km/h (0 Bft) 100,00 %
25.03.2020 06:08 0,6 C -0,6 C -1,7 C 58 % 1028,6 hPa 0,0 l/m 0 min 0 min 0 W/m 0,0 km/h (0 Bft) 97,65 %
25.03.2020 06:10 0,6 C -0,6 C -1,7 C 58 % 1028,7 hPa 0,0 l/m 0 min 0 min 0 W/m 0,0 km/h (0 Bft) 97,87 %
25.03.2020 06:12 0,6 C -0,6 C -2,2 C 58 % 1028,7 hPa 0,0 l/m 0 min 0 min 0 W/m 0,0 km/h (0 Bft) 97,83 %
25.03.2020 06:14 0,6 C -1,1 C -2,2 C 58 % 1028,8 hPa 0,0 l/m 0 min 0 min 0 W/m 0,0 km/h (0 Bft) 97,87 %
25.03.2020 06:16 0,5 C -1,1 C -2,2 C 58 % 1028,8 hPa 0,0 l/m 0 min 0 min 0 W/m 0,0 km/h (0 Bft) 97,87 %
25.03.2020 06:18 0,4 C -1,1 C -2,2 C 58 % 1028,8 hPa 0,0 l/m 0 min 0 min 0 W/m 0,0 km/h (0 Bft) 97,87 %
25.03.2020 06:20 0,4 C -1,1 C -2,8 C 59 % 1028,8 hPa 0,0 l/m 0 min 0 min 0 W/m 0,0 km/h (0 Bft) 97,87 %
25.03.2020 06:22 0,4 C -1,1 C -2,8 C 59 % 1028,8 hPa 0,0 l/m 0 min 0 min 0 W/m 0,0 km/h (0 Bft) 97,87 %
25.03.2020 06:24 0,3 C -1,1 C -2,8 C 59 % 1028,8 hPa 0,0 l/m 0 min 0 min 0 W/m 0,0 km/h (0 Bft) 97,83 %
25.03.2020 06:26 0,3 C -1,1 C -2,8 C 59 % 1028,8 hPa 0,0 l/m 0 min 0 min 3 W/m 0,0 km/h (0 Bft) 97,87 %
25.03.2020 06:28 0,3 C -0,6 C -2,2 C 58 % 1028,8 hPa 0,0 l/m 0 min 0 min 5 W/m 0,0 km/h (0 Bft) 97,87 %
25.03.2020 06:30 0,2 C -0,6 C -2,2 C 59 % 1028,8 hPa 0,0 l/m 0 min 0 min 5 W/m 0,0 km/h (0 Bft) 100,00 %
25.03.2020 06:32 0,2 C -0,6 C -2,2 C 58 % 1028,8 hPa 0,0 l/m 0 min 0 min 7 W/m 0,0 km/h (0 Bft) 95,74 %
25.03.2020 06:34 0,2 C -0,6 C -2,2 C 58 % 1028,9 hPa 0,0 l/m 0 min 0 min 7 W/m 0,0 km/h (0 Bft) 95,65 %
25.03.2020 06:36 0,2 C -0,6 C -2,2 C 59 % 1028,8 hPa 0,0 l/m 0 min 0 min 9 W/m 0,0 km/h (0 Bft) 95,74 %
25.03.2020 06:38 0,1 C -0,6 C -2,2 C 59 % 1028,8 hPa 0,0 l/m 0 min 0 min 9 W/m 0,0 km/h (0 Bft) 97,87 %
25.03.2020 06:40 0,1 C -0,6 C -2,2 C 59 % 1028,9 hPa 0,0 l/m 0 min 0 min 11 W/m 0,0 km/h (0 Bft) 100,00 %
25.03.2020 06:42 0,1 C -0,6 C -2,2 C 59 % 1028,9 hPa 0,0 l/m 0 min 0 min 11 W/m 0,0 km/h (0 Bft) 100,00 %
25.03.2020 06:44 0,1 C -1,1 C -2,2 C 59 % 1028,9 hPa 0,0 l/m 0 min 0 min 12 W/m 0,0 km/h (0 Bft) 100,00 %
25.03.2020 06:46 0,1 C -1,1 C -2,2 C 59 % 1028,9 hPa 0,0 l/m 0 min 0 min 12 W/m 0,0 km/h (0 Bft) 100,00 %
25.03.2020 06:48 0,1 C -1,1 C -2,8 C 59 % 1028,9 hPa 0,0 l/m 0 min 0 min 12 W/m 0,0 km/h (0 Bft) 100,00 %
25.03.2020 06:50 0,1 C -1,7 C -2,8 C 59 % 1028,9 hPa 0,0 l/m 0 min 0 min 14 W/m 0,0 km/h (0 Bft) 93,62 %
25.03.2020 06:52 0,0 C -1,7 C -2,8 C 60 % 1029,0 hPa 0,0 l/m 0 min 0 min 14 W/m 0,0 km/h (0 Bft) 97,87 %
25.03.2020 06:54 0,0 C -1,1 C -2,8 C 60 % 1029,0 hPa 0,0 l/m 0 min 0 min 16 W/m 0,0 km/h (0 Bft) 97,87 %
25.03.2020 06:56 0,0 C -1,1 C -2,8 C 60 % 1029,0 hPa 0,0 l/m 0 min 0 min 16 W/m 0,0 km/h (0 Bft) 97,87 %
25.03.2020 06:58 0,0 C -1,1 C -2,8 C 60 % 1029,0 hPa 0,0 l/m 0 min 0 min 17 W/m 0,0 km/h (0 Bft) 95,65 %
25.03.2020 07:00 -0,1 C -0,6 C -2,8 C 60 % 1028,9 hPa 0,0 l/m 0 min 0 min 18 W/m 0,0 km/h (0 Bft) 97,87 %
25.03.2020 07:02 -0,1 C -0,6 C -2,8 C 60 % 1029,0 hPa 0,0 l/m 0 min 0 min 18 W/m 0,0 km/h (0 Bft) 100,00 %
25.03.2020 07:04 -0,1 C -0,6 C -2,2 C 60 % 1028,9 hPa 0,0 l/m 0 min 0 min 19 W/m 0,0 km/h (0 Bft) 97,87 %
25.03.2020 07:06 -0,1 C -0,6 C -2,2 C 60 % 1028,9 hPa 0,0 l/m 0 min 0 min 19 W/m 0,0 km/h (0 Bft) 95,74 %
25.03.2020 07:08 -0,2 C -0,6 C -2,2 C 61 % 1028,9 hPa 0,0 l/m 0 min 0 min 20 W/m 0,0 km/h (0 Bft) 93,48 %
25.03.2020 07:10 -0,2 C -0,6 C -2,2 C 61 % 1028,9 hPa 0,0 l/m 0 min 0 min 21 W/m 0,0 km/h (0 Bft) 93,62 %
25.03.2020 07:12 -0,2 C -0,6 C -2,2 C 61 % 1029,0 hPa 0,0 l/m 0 min 0 min 21 W/m 0,0 km/h (0 Bft) 97,87 %
25.03.2020 07:14 -0,2 C -0,6 C -2,2 C 61 % 1028,9 hPa 0,0 l/m 0 min 0 min 22 W/m 0,0 km/h (0 Bft) 97,87 %
25.03.2020 07:16 -0,2 C -1,1 C -2,2 C 61 % 1028,9 hPa 0,0 l/m 0 min 0 min 23 W/m 0,0 km/h (0 Bft) 97,87 %
25.03.2020 07:18 -0,2 C -1,1 C -2,2 C 61 % 1028,9 hPa 0,0 l/m 0 min 0 min 23 W/m 0,0 km/h (0 Bft) 97,87 %
25.03.2020 07:20 -0,2 C -1,1 C -2,2 C 61 % 1028,9 hPa 0,0 l/m 0 min 0 min 25 W/m 0,0 km/h (0 Bft) 97,83 %
25.03.2020 07:22 -0,2 C -1,1 C -2,2 C 61 % 1029,0 hPa 0,0 l/m 0 min 0 min 25 W/m 0,0 km/h (0 Bft) 95,74 %
25.03.2020 07:24 -0,3 C -1,1 C -2,2 C 61 % 1029,0 hPa 0,0 l/m 0 min 0 min 25 W/m 0,0 km/h (0 Bft) 97,87 %
25.03.2020 07:26 -0,3 C -1,1 C -2,2 C 62 % 1029,0 hPa 0,0 l/m 0 min 0 min 26 W/m 0,0 km/h (0 Bft) 95,74 %
25.03.2020 07:28 -0,3 C -1,1 C -2,2 C 62 % 1029,0 hPa 0,0 l/m 0 min 0 min 26 W/m 0,0 km/h (0 Bft) 97,87 %
25.03.2020 07:30 -0,3 C -1,1 C -2,2 C 62 % 1029,0 hPa 0,0 l/m 0 min 0 min 27 W/m 0,0 km/h (0 Bft) 97,87 %
25.03.2020 07:32 -0,3 C -1,1 C -2,2 C 62 % 1029,0 hPa 0,0 l/m 0 min 0 min 28 W/m 0,0 km/h (0 Bft) 95,65 %
25.03.2020 07:34 -0,3 C -0,6 C -2,2 C 62 % 1029,0 hPa 0,0 l/m 0 min 0 min 28 W/m 0,0 km/h (0 Bft) 97,87 %
25.03.2020 07:36 -0,3 C -0,6 C -2,2 C 63 % 1029,0 hPa 0,0 l/m 0 min 0 min 29 W/m 0,0 km/h (0 Bft) 97,87 %
25.03.2020 07:38 -0,3 C -0,6 C -2,2 C 63 % 1029,0 hPa 0,0 l/m 0 min 0 min 30 W/m 0,0 km/h (0 Bft) 97,87 %
25.03.2020 07:40 -0,4 C -0,6 C -2,2 C 63 % 1029,0 hPa 0,0 l/m 0 min 0 min 30 W/m 0,0 km/h (0 Bft) 100,00 %
25.03.2020 07:42 -0,4 C -0,6 C -2,2 C 63 % 1029,0 hPa 0,0 l/m 0 min 0 min 31 W/m 0,0 km/h (0 Bft) 65,96 %
25.03.2020 07:44 -0,4 C -0,6 C -2,2 C 63 % 1029,0 hPa 0,0 l/m 0 min 0 min 32 W/m 0,0 km/h (0 Bft) 83,87 %
25.03.2020 07:46 -0,4 C 0,0 C -2,2 C 63 % 1029,0 hPa 0,0 l/m 0 min 0 min 32 W/m 0,0 km/h (0 Bft) 100,00 %
25.03.2020 07:48 -0,4 C -0,6 C -2,2 C 64 % 1029,0 hPa 0,0 l/m 0 min 0 min 32 W/m 0,0 km/h (0 Bft) 95,74 %
25.03.2020 07:50 -0,4 C 0,0 C -2,2 C 64 % 1029,0 hPa 0,0 l/m 0 min 0 min 33 W/m 0,0 km/h (0 Bft) 100,00 %
25.03.2020 07:52 -0,4 C 0,0 C -2,2 C 64 % 1028,9 hPa 0,0 l/m 0 min 0 min 33 W/m 0,0 km/h (0 Bft) 100,00 %
25.03.2020 07:54 -0,4 C 0,6 C -1,7 C 64 % 1028,9 hPa 0,0 l/m 0 min 0 min 33 W/m 0,0 km/h (0 Bft) 97,87 %
25.03.2020 07:56 -0,4 C 0,6 C -1,7 C 65 % 1028,9 hPa 0,0 l/m 0 min 0 min 35 W/m 0,0 km/h (0 Bft) 97,83 %
25.03.2020 07:58 -0,3 C 0,6 C -1,7 C 65 % 1029,0 hPa 0,0 l/m 0 min 0 min 35 W/m 0,0 km/h (0 Bft) 97,87 %
25.03.2020 08:00 -0,3 C 1,1 C -1,7 C 65 % 1029,0 hPa 0,0 l/m 0 min 0 min 35 W/m 0,0 km/h (0 Bft) 97,87 %
25.03.2020 08:02 -0,2 C 1,1 C -1,7 C 65 % 1029,0 hPa 0,0 l/m 0 min 0 min 37 W/m 0,0 km/h (0 Bft) 97,87 %
25.03.2020 08:04 -0,1 C 1,7 C -1,1 C 64 % 1029,0 hPa 0,0 l/m 0 min 0 min 37 W/m 0,0 km/h (0 Bft) 97,87 %
25.03.2020 08:06 -0,1 C 1,7 C -1,1 C 64 % 1029,0 hPa 0,0 l/m 0 min 0 min 37 W/m 0,0 km/h (0 Bft) 93,62 %
25.03.2020 08:08 0,1 C 2,2 C -0,6 C 63 % 1029,0 hPa 0,0 l/m 0 min 0 min 39 W/m 0,0 km/h (0 Bft) 95,65 %
25.03.2020 08:10 0,3 C 2,8 C 0,0 C 62 % 1029,1 hPa 0,0 l/m 0 min 0 min 39 W/m 0,0 km/h (0 Bft) 95,74 %
25.03.2020 08:12 0,5 C 2,8 C 0,6 C 61 % 1029,1 hPa 0,0 l/m 0 min 0 min 39 W/m 0,0 km/h (0 Bft) 95,74 %
25.03.2020 08:14 0,7 C 2,8 C 0,6 C 60 % 1029,1 hPa 0,0 l/m 0 min 0 min 40 W/m 0,0 km/h (0 Bft) 95,74 %
25.03.2020 08:16 0,9 C 2,8 C 0,6 C 60 % 1029,0 hPa 0,0 l/m 0 min 0 min 40 W/m 0,0 km/h (0 Bft) 95,74 %
25.03.2020 08:18 1,2 C 3,3 C 1,1 C 59 % 1029,1 hPa 0,0 l/m 0 min 0 min 40 W/m 0,0 km/h (0 Bft) 97,83 %
25.03.2020 08:20 1,3 C 3,3 C 1,7 C 58 % 1029,0 hPa 0,0 l/m 0 min 0 min 42 W/m 6,4 km/h (2 Bft) 93,62 %
25.03.2020 08:22 1,6 C 3,3 C 1,7 C 57 % 1029,0 hPa 0,0 l/m 0 min 0 min 42 W/m 3,2 km/h (1 Bft) 91,49 %
25.03.2020 08:24 1,9 C 3,3 C 1,7 C 56 % 1029,0 hPa 0,0 l/m 0 min 0 min 42 W/m 0,0 km/h (0 Bft) 95,74 %
25.03.2020 08:26 2,1 C 3,3 C 2,2 C 55 % 1029,1 hPa 0,0 l/m 0 min 0 min 43 W/m 0,0 km/h (0 Bft) 93,62 %
25.03.2020 08:28 2,3 C 3,3 C 2,2 C 54 % 1029,1 hPa 0,0 l/m 0 min 0 min 44 W/m 6,4 km/h (2 Bft) 93,62 %
25.03.2020 08:30 2,5 C 3,9 C 2,2 C 54 % 1029,1 hPa 0,0 l/m 0 min 0 min 44 W/m 6,4 km/h (2 Bft) 95,65 %
25.03.2020 08:32 2,7 C 3,9 C 2,2 C 53 % 1029,0 hPa 0,0 l/m 0 min 0 min 45 W/m 0,0 km/h (0 Bft) 95,74 %
25.03.2020 08:34 2,9 C 3,9 C 2,2 C 53 % 1029,1 hPa 0,0 l/m 0 min 0 min 48 W/m 6,4 km/h (2 Bft) 95,74 %
25.03.2020 08:36 3,1 C 3,9 C 2,2 C 52 % 1029,0 hPa 0,0 l/m 0 min 0 min 127 W/m 12,9 km/h (3 Bft) 100,00 %
25.03.2020 08:38 3,2 C 3,9 C 2,8 C 51 % 1029,1 hPa 0,0 l/m 2 min 0 min 306 W/m 6,4 km/h (2 Bft) 95,74 %
25.03.2020 08:40 3,3 C 5,6 C 2,8 C 51 % 1029,1 hPa 0,0 l/m 2 min 0 min 338 W/m 6,4 km/h (2 Bft) 97,87 %
25.03.2020 08:42 3,4 C 7,2 C 2,8 C 51 % 1029,1 hPa 0,0 l/m 2 min 0 min 343 W/m 0,0 km/h (0 Bft) 95,65 %
25.03.2020 08:44 3,6 C 8,3 C 2,8 C 51 % 1029,1 hPa 0,0 l/m 2 min 0 min 349 W/m 0,0 km/h (0 Bft) 97,87 %
25.03.2020 08:46 3,7 C 8,3 C 2,8 C 50 % 1029,1 hPa 0,0 l/m 2 min 0 min 356 W/m 0,0 km/h (0 Bft) 100,00 %
25.03.2020 08:48 3,8 C 8,9 C 2,8 C 50 % 1029,0 hPa 0,0 l/m 2 min 0 min 362 W/m 0,0 km/h (0 Bft) 97,87 %
25.03.2020 08:50 3,9 C 8,9 C 3,3 C 49 % 1029,0 hPa 0,0 l/m 2 min 0 min 368 W/m 9,7 km/h (2 Bft) 100,00 %
25.03.2020 08:52 4,2 C 9,4 C 3,3 C 49 % 1029,1 hPa 0,0 l/m 2 min 0 min 374 W/m 3,2 km/h (1 Bft) 97,87 %
25.03.2020 08:54 4,3 C 9,4 C 3,3 C 48 % 1029,1 hPa 0,0 l/m 2 min 0 min 379 W/m 6,4 km/h (2 Bft) 100,00 %
25.03.2020 08:56 4,4 C 10,0 C 3,3 C 48 % 1029,1 hPa 0,0 l/m 2 min 0 min 386 W/m 6,4 km/h (2 Bft) 100,00 %
25.03.2020 08:58 4,6 C 9,4 C 3,3 C 48 % 1029,0 hPa 0,0 l/m 2 min 0 min 392 W/m 6,4 km/h (2 Bft) 97,87 %
25.03.2020 09:00 4,8 C 9,4 C 3,9 C 48 % 1029,1 hPa 0,0 l/m 2 min 0 min 398 W/m 12,9 km/h (3 Bft) 100,00 %
25.03.2020 09:02 4,9 C 9,4 C 4,4 C 47 % 1029,0 hPa 0,0 l/m 2 min 0 min 403 W/m 12,9 km/h (3 Bft) 100,00 %
25.03.2020 09:04 5,1 C 10,0 C 7,2 C 47 % 1029,0 hPa 0,0 l/m 2 min 0 min 410 W/m 19,3 km/h (3 Bft) 100,00 %
25.03.2020 09:06 5,2 C 9,4 C 8,3 C 47 % 1028,9 hPa 0,0 l/m 2 min 0 min 416 W/m 16,1 km/h (3 Bft) 100,00 %
25.03.2020 09:08 5,3 C 9,4 C 8,9 C 46 % 1028,9 hPa 0,0 l/m 2 min 0 min 421 W/m 6,4 km/h (2 Bft) 95,74 %
25.03.2020 09:10 5,4 C 10,0 C 9,4 C 46 % 1028,9 hPa 0,0 l/m 2 min 0 min 427 W/m 19,3 km/h (3 Bft) 93,62 %
25.03.2020 09:12 5,6 C 9,4 C 9,4 C 46 % 1028,9 hPa 0,0 l/m 2 min 0 min 433 W/m 19,3 km/h (3 Bft) 97,87 %
25.03.2020 09:14 5,6 C 8,9 C 9,4 C 45 % 1028,9 hPa 0,0 l/m 2 min 0 min 437 W/m 16,1 km/h (3 Bft) 97,87 %
25.03.2020 09:16 5,7 C 9,4 C 9,4 C 45 % 1028,9 hPa 0,0 l/m 2 min 0 min 442 W/m 22,5 km/h (4 Bft) 97,83 %
25.03.2020 09:18 5,8 C 10,0 C 10,6 C 45 % 1028,8 hPa 0,0 l/m 2 min 0 min 449 W/m 16,1 km/h (3 Bft) 97,87 %
25.03.2020 09:20 5,8 C 10,0 C 11,1 C 45 % 1028,9 hPa 0,0 l/m 2 min 0 min 454 W/m 12,9 km/h (3 Bft) 97,87 %
25.03.2020 09:22 5,9 C 9,4 C 10,6 C 45 % 1028,9 hPa 0,0 l/m 2 min 0 min 460 W/m 25,7 km/h (4 Bft) 97,87 %
25.03.2020 09:24 6,0 C 9,4 C 11,1 C 44 % 1028,8 hPa 0,0 l/m 2 min 0 min 464 W/m 12,9 km/h (3 Bft) 95,74 %
25.03.2020 09:26 6,1 C 10,0 C 10,0 C 44 % 1028,8 hPa 0,0 l/m 2 min 0 min 473 W/m 16,1 km/h (3 Bft) 95,74 %
25.03.2020 09:28 6,1 C 10,0 C 10,6 C 44 % 1028,9 hPa 0,0 l/m 2 min 0 min 478 W/m 6,4 km/h (2 Bft) 97,83 %
25.03.2020 09:30 6,2 C 10,6 C 10,6 C 45 % 1028,9 hPa 0,0 l/m 2 min 0 min 482 W/m 6,4 km/h (2 Bft) 97,87 %
25.03.2020 09:32 6,3 C 11,1 C 11,7 C 44 % 1028,9 hPa 0,0 l/m 2 min 0 min 487 W/m 19,3 km/h (3 Bft) 95,74 %
25.03.2020 09:34 6,3 C 10,6 C 10,6 C 44 % 1028,9 hPa 0,0 l/m 2 min 0 min 491 W/m 12,9 km/h (3 Bft) 95,74 %
25.03.2020 09:36 6,4 C 11,1 C 11,1 C 44 % 1028,9 hPa 0,0 l/m 2 min 0 min 498 W/m 6,4 km/h (2 Bft) 97,87 %
25.03.2020 09:38 6,5 C 11,1 C 11,1 C 44 % 1028,9 hPa 0,0 l/m 2 min 0 min 502 W/m 19,3 km/h (3 Bft) 97,87 %
25.03.2020 09:40 6,5 C 11,1 C 11,1 C 43 % 1028,8 hPa 0,0 l/m 2 min 0 min 507 W/m 9,7 km/h (2 Bft) 97,83 %
25.03.2020 09:42 6,6 C 11,1 C 11,1 C 44 % 1028,8 hPa 0,0 l/m 2 min 0 min 513 W/m 12,9 km/h (3 Bft) 97,87 %
25.03.2020 09:44 6,7 C 10,6 C 11,7 C 43 % 1028,8 hPa 0,0 l/m 2 min 0 min 518 W/m 25,7 km/h (4 Bft) 97,87 %
25.03.2020 09:46 6,8 C 11,1 C 11,7 C 43 % 1028,9 hPa 0,0 l/m 2 min 0 min 522 W/m 6,4 km/h (2 Bft) 100,00 %
25.03.2020 09:48 6,8 C 11,7 C 11,7 C 43 % 1028,8 hPa 0,0 l/m 2 min 0 min 528 W/m 12,9 km/h (3 Bft) 100,00 %
25.03.2020 09:50 6,9 C 11,7 C 10,0 C 43 % 1028,9 hPa 0,0 l/m 2 min 0 min 532 W/m 12,9 km/h (3 Bft) 100,00 %
25.03.2020 09:52 6,9 C 11,7 C 8,3 C 43 % 1028,9 hPa 0,0 l/m 2 min 0 min 538 W/m 16,1 km/h (3 Bft) 100,00 %
25.03.2020 09:54 7,1 C 11,1 C 7,2 C 42 % 1028,9 hPa 0,0 l/m 2 min 0 min 542 W/m 25,7 km/h (4 Bft) 100,00 %
25.03.2020 09:56 7,1 C 11,1 C 6,1 C 41 % 1028,9 hPa 0,0 l/m 2 min 0 min 549 W/m 12,9 km/h (3 Bft) 100,00 %
25.03.2020 09:58 7,1 C 11,1 C 6,1 C 42 % 1028,9 hPa 0,0 l/m 2 min 0 min 552 W/m 12,9 km/h (3 Bft) 100,00 %
25.03.2020 10:00 7,1 C 11,1 C 6,1 C 42 % 1028,8 hPa 0,0 l/m 2 min 0 min 557 W/m 19,3 km/h (3 Bft) 100,00 %
25.03.2020 10:02 7,2 C 11,7 C 6,1 C 42 % 1028,8 hPa 0,0 l/m 2 min 0 min 564 W/m 12,9 km/h (3 Bft) 100,00 %
25.03.2020 10:04 7,3 C 12,2 C 6,1 C 42 % 1028,8 hPa 0,0 l/m 2 min 0 min 568 W/m 6,4 km/h (2 Bft) 100,00 %
25.03.2020 10:06 7,4 C 11,7 C 6,1 C 41 % 1028,8 hPa 0,0 l/m 2 min 0 min 573 W/m 16,1 km/h (3 Bft) 97,87 %
25.03.2020 10:08 7,4 C 11,7 C 6,1 C 41 % 1028,8 hPa 0,0 l/m 2 min 0 min 579 W/m 16,1 km/h (3 Bft) 100,00 %
25.03.2020 10:10 7,4 C 12,2 C 6,1 C 41 % 1028,8 hPa 0,0 l/m 2 min 0 min 581 W/m 12,9 km/h (3 Bft) 100,00 %
25.03.2020 10:12 7,5 C 11,7 C 6,1 C 41 % 1028,8 hPa 0,0 l/m 2 min 0 min 586 W/m 16,1 km/h (3 Bft) 100,00 %
25.03.2020 10:14 7,6 C 12,2 C 6,7 C 41 % 1028,7 hPa 0,0 l/m 2 min 0 min 590 W/m 12,9 km/h (3 Bft) 100,00 %
25.03.2020 10:16 7,7 C 12,2 C 6,7 C 41 % 1028,7 hPa 0,0 l/m 2 min 0 min 595 W/m 12,9 km/h (3 Bft) 100,00 %
25.03.2020 10:18 7,7 C 12,2 C 6,1 C 41 % 1028,7 hPa 0,0 l/m 2 min 0 min 598 W/m 16,1 km/h (3 Bft) 97,87 %
25.03.2020 10:20 7,8 C 12,2 C 6,1 C 40 % 1028,7 hPa 0,0 l/m 2 min 0 min 602 W/m 19,3 km/h (3 Bft) 100,00 %
25.03.2020 10:22 7,9 C 12,8 C 6,1 C 40 % 1028,7 hPa 0,0 l/m 2 min 0 min 604 W/m 16,1 km/h (3 Bft) 100,00 %
25.03.2020 10:24 7,9 C 12,8 C 6,1 C 40 % 1028,7 hPa 0,0 l/m 2 min 0 min 607 W/m 12,9 km/h (3 Bft) 100,00 %
25.03.2020 10:26 7,9 C 12,2 C 6,7 C 40 % 1028,7 hPa 0,0 l/m 2 min 0 min 613 W/m 12,9 km/h (3 Bft) 100,00 %
25.03.2020 10:28 8,0 C 12,8 C 6,7 C 40 % 1028,7 hPa 0,0 l/m 2 min 0 min 617 W/m 6,4 km/h (2 Bft) 100,00 %
25.03.2020 10:30 8,1 C 13,9 C 6,7 C 41 % 1028,7 hPa 0,0 l/m 2 min 0 min 621 W/m 9,7 km/h (2 Bft) 97,87 %
25.03.2020 10:32 8,1 C 12,2 C 6,7 C 39 % 1028,6 hPa 0,0 l/m 2 min 0 min 624 W/m 22,5 km/h (4 Bft) 97,87 %
25.03.2020 10:34 8,2 C 12,2 C 6,7 C 39 % 1028,6 hPa 0,0 l/m 2 min 0 min 626 W/m 16,1 km/h (3 Bft) 97,87 %
25.03.2020 10:36 8,2 C 13,3 C 6,7 C 40 % 1028,6 hPa 0,0 l/m 2 min 0 min 630 W/m 0,0 km/h (0 Bft) 97,87 %
25.03.2020 10:38 8,3 C 13,9 C 7,2 C 40 % 1028,6 hPa 0,0 l/m 2 min 0 min 635 W/m 0,0 km/h (0 Bft) 97,83 %
25.03.2020 10:40 8,3 C 14,4 C 7,2 C 41 % 1028,5 hPa 0,0 l/m 2 min 0 min 640 W/m 0,0 km/h (0 Bft) 97,87 %
25.03.2020 10:42 8,4 C 15,6 C 7,2 C 42 % 1028,4 hPa 0,0 l/m 2 min 0 min 644 W/m 3,2 km/h (1 Bft) 97,87 %
25.03.2020 10:44 8,6 C 16,1 C 7,2 C 41 % 1028,5 hPa 0,0 l/m 2 min 0 min 648 W/m 9,7 km/h (2 Bft) 97,87 %
25.03.2020 10:46 8,7 C 15,6 C 7,8 C 41 % 1028,4 hPa 0,0 l/m 2 min 0 min 652 W/m 6,4 km/h (2 Bft) 97,87 %
25.03.2020 10:48 8,8 C 16,1 C 7,8 C 41 % 1028,4 hPa 0,0 l/m 2 min 0 min 658 W/m 9,7 km/h (2 Bft) 97,87 %
25.03.2020 10:50 8,8 C 16,1 C 7,8 C 40 % 1028,4 hPa 0,0 l/m 2 min 0 min 661 W/m 6,4 km/h (2 Bft) 97,83 %
25.03.2020 10:52 9,0 C 15,6 C 7,8 C 40 % 1028,3 hPa 0,0 l/m 2 min 0 min 663 W/m 6,4 km/h (2 Bft) 97,87 %
25.03.2020 10:54 9,1 C 16,7 C 7,8 C 41 % 1028,4 hPa 0,0 l/m 2 min 0 min 668 W/m 6,4 km/h (2 Bft) 97,87 %
25.03.2020 10:56 9,2 C 16,7 C 7,8 C 41 % 1028,4 hPa 0,0 l/m 2 min 0 min 672 W/m 3,2 km/h (1 Bft) 97,87 %
25.03.2020 10:58 9,4 C 16,1 C 8,3 C 40 % 1028,3 hPa 0,0 l/m 2 min 0 min 676 W/m 3,2 km/h (1 Bft) 97,87 %
25.03.2020 11:00 9,5 C 16,1 C 8,3 C 40 % 1028,3 hPa 0,0 l/m 2 min 0 min 677 W/m 6,4 km/h (2 Bft) 95,74 %
25.03.2020 11:02 9,6 C 16,1 C 8,3 C 40 % 1028,3 hPa 0,0 l/m 2 min 0 min 678 W/m 6,4 km/h (2 Bft) 97,96 %
25.03.2020 11:04 9,7 C 16,1 C 8,3 C 40 % 1028,3 hPa 0,0 l/m 2 min 0 min 681 W/m 6,4 km/h (2 Bft) 95,74 %
25.03.2020 11:06 9,7 C 15,0 C 8,3 C 38 % 1028,3 hPa 0,0 l/m 2 min 0 min 687 W/m 9,7 km/h (2 Bft) 97,87 %
25.03.2020 11:08 9,8 C 15,6 C 8,3 C 39 % 1028,3 hPa 0,0 l/m 2 min 0 min 690 W/m 12,9 km/h (3 Bft) 97,87 %
25.03.2020 11:10 9,8 C 15,6 C 8,3 C 40 % 1028,2 hPa 0,0 l/m 2 min 0 min 693 W/m 12,9 km/h (3 Bft) 97,87 %
25.03.2020 11:12 9,8 C 15,6 C 8,3 C 40 % 1028,1 hPa 0,0 l/m 2 min 0 min 694 W/m 9,7 km/h (2 Bft) 97,83 %
25.03.2020 11:14 9,9 C 16,7 C 8,3 C 40 % 1028,1 hPa 0,0 l/m 2 min 0 min 696 W/m 9,7 km/h (2 Bft) 95,74 %
25.03.2020 11:16 9,9 C 16,7 C 8,9 C 39 % 1028,1 hPa 0,0 l/m 2 min 0 min 699 W/m 9,7 km/h (2 Bft) 97,87 %
25.03.2020 11:18 10,0 C 16,1 C 8,3 C 39 % 1028,0 hPa 0,0 l/m 2 min 0 min 701 W/m 12,9 km/h (3 Bft) 97,87 %
25.03.2020 11:20 10,1 C 15,6 C 8,9 C 37 % 1028,0 hPa 0,0 l/m 2 min 0 min 705 W/m 12,9 km/h (3 Bft) 100,00 %
25.03.2020 11:22 10,1 C 16,1 C 8,9 C 38 % 1028,0 hPa 0,0 l/m 2 min 0 min 710 W/m 6,4 km/h (2 Bft) 100,00 %
25.03.2020 11:24 10,1 C 15,6 C 8,9 C 37 % 1028,0 hPa 0,0 l/m 2 min 0 min 714 W/m 9,7 km/h (2 Bft) 97,87 %
25.03.2020 11:26 10,1 C 16,7 C 8,9 C 38 % 1027,9 hPa 0,0 l/m 2 min 0 min 716 W/m 9,7 km/h (2 Bft) 97,87 %
25.03.2020 11:28 10,2 C 17,8 C 8,9 C 41 % 1027,9 hPa 0,0 l/m 2 min 0 min 719 W/m 6,4 km/h (2 Bft) 97,87 %
25.03.2020 11:30 10,3 C 17,2 C 8,9 C 39 % 1027,9 hPa 0,0 l/m 2 min 0 min 721 W/m 6,4 km/h (2 Bft) 95,74 %
25.03.2020 11:32 10,4 C 17,8 C 8,9 C 39 % 1027,9 hPa 0,0 l/m 2 min 0 min 723 W/m 9,7 km/h (2 Bft) 97,87 %
25.03.2020 11:34 10,5 C 17,2 C 9,4 C 39 % 1027,9 hPa 0,0 l/m 2 min 0 min 725 W/m 6,4 km/h (2 Bft) 97,83 %
25.03.2020 11:36 10,6 C 17,2 C 9,4 C 40 % 1027,8 hPa 0,0 l/m 2 min 0 min 729 W/m 6,4 km/h (2 Bft) 97,87 %
25.03.2020 11:38 10,7 C 17,8 C 9,4 C 40 % 1027,8 hPa 0,0 l/m 2 min 0 min 730 W/m 6,4 km/h (2 Bft) 97,87 %
25.03.2020 11:40 10,8 C 16,7 C 9,4 C 39 % 1027,8 hPa 0,0 l/m 2 min 0 min 732 W/m 9,7 km/h (2 Bft) 97,87 %
25.03.2020 11:42 10,8 C 17,2 C 9,4 C 39 % 1027,7 hPa 0,0 l/m 2 min 0 min 733 W/m 9,7 km/h (2 Bft) 97,87 %
25.03.2020 11:44 10,9 C 17,8 C 9,4 C 39 % 1027,7 hPa 0,0 l/m 2 min 0 min 733 W/m 6,4 km/h (2 Bft) 95,74 %
25.03.2020 11:46 11,0 C 18,3 C 10,0 C 41 % 1027,8 hPa 0,0 l/m 2 min 0 min 735 W/m 6,4 km/h (2 Bft) 97,83 %
25.03.2020 11:48 11,1 C 18,3 C 10,0 C 40 % 1027,7 hPa 0,0 l/m 2 min 0 min 735 W/m 16,1 km/h (3 Bft) 97,87 %
25.03.2020 11:50 11,2 C 18,3 C 10,0 C 40 % 1027,6 hPa 0,0 l/m 2 min 0 min 738 W/m 6,4 km/h (2 Bft) 95,74 %
25.03.2020 11:52 11,3 C 18,9 C 10,0 C 41 % 1027,6 hPa 0,0 l/m 2 min 0 min 740 W/m 6,4 km/h (2 Bft) 97,87 %
25.03.2020 11:54 11,3 C 18,3 C 10,0 C 39 % 1027,6 hPa 0,0 l/m 2 min 0 min 743 W/m 3,2 km/h (1 Bft) 95,74 %
25.03.2020 11:56 11,4 C 18,3 C 10,0 C 39 % 1027,6 hPa 0,0 l/m 2 min 0 min 744 W/m 6,4 km/h (2 Bft) 95,74 %
25.03.2020 11:58 11,5 C 17,8 C 10,6 C 39 % 1027,6 hPa 0,0 l/m 2 min 0 min 745 W/m 9,7 km/h (2 Bft) 95,65 %
25.03.2020 12:00 11,5 C 17,2 C 10,6 C 38 % 1027,6 hPa 0,0 l/m 2 min 0 min 742 W/m 12,9 km/h (3 Bft) 95,74 %
25.03.2020 12:02 11,6 C 18,3 C 10,6 C 40 % 1027,5 hPa 0,0 l/m 2 min 0 min 746 W/m 3,2 km/h (1 Bft) 91,49 %
25.03.2020 12:04 11,6 C 18,3 C 10,6 C 38 % 1027,6 hPa 0,0 l/m 2 min 0 min 745 W/m 6,4 km/h (2 Bft) 95,74 %
25.03.2020 12:08 11,7 C 17,8 C 10,6 C 39 % 1027,5 hPa 0,0 l/m 4 min 0 min 744 W/m 12,9 km/h (3 Bft) 96,81 %
25.03.2020 12:10 11,7 C 17,8 C 10,6 C 39 % 1027,5 hPa 0,0 l/m 2 min 0 min 747 W/m 12,9 km/h (3 Bft) 97,83 %
25.03.2020 12:12 11,7 C 17,8 C 10,6 C 38 % 1027,4 hPa 0,0 l/m 2 min 0 min 747 W/m 6,4 km/h (2 Bft) 97,87 %
25.03.2020 12:14 11,7 C 18,3 C 10,6 C 38 % 1027,4 hPa 0,0 l/m 2 min 0 min 748 W/m 12,9 km/h (3 Bft) 95,74 %
25.03.2020 12:16 11,8 C 18,3 C 11,1 C 39 % 1027,3 hPa 0,0 l/m 2 min 0 min 749 W/m 9,7 km/h (2 Bft) 97,87 %
25.03.2020 12:18 11,8 C 18,3 C 11,1 C 39 % 1027,2 hPa 0,0 l/m 2 min 0 min 752 W/m 9,7 km/h (2 Bft) 97,87 %
25.03.2020 12:20 11,9 C 18,9 C 11,1 C 40 % 1027,2 hPa 0,0 l/m 2 min 0 min 752 W/m 6,4 km/h (2 Bft) 97,87 %
25.03.2020 12:22 12,0 C 18,3 C 11,1 C 37 % 1027,2 hPa 0,0 l/m 2 min 0 min 755 W/m 9,7 km/h (2 Bft) 97,83 %
25.03.2020 12:24 12,1 C 18,3 C 11,1 C 38 % 1027,2 hPa 0,0 l/m 2 min 0 min 757 W/m 9,7 km/h (2 Bft) 97,87 %
25.03.2020 12:26 12,1 C 18,9 C 11,7 C 37 % 1027,1 hPa 0,0 l/m 2 min 0 min 758 W/m 9,7 km/h (2 Bft) 95,74 %
25.03.2020 12:28 12,1 C 18,9 C 11,7 C 38 % 1027,1 hPa 0,0 l/m 2 min 0 min 762 W/m 9,7 km/h (2 Bft) 97,87 %
25.03.2020 12:30 12,2 C 17,8 C 11,7 C 38 % 1027,1 hPa 0,0 l/m 2 min 0 min 763 W/m 6,4 km/h (2 Bft) 97,87 %
25.03.2020 12:32 12,3 C 17,8 C 11,7 C 37 % 1027,0 hPa 0,0 l/m 2 min 0 min 759 W/m 3,2 km/h (1 Bft) 97,83 %
25.03.2020 12:34 12,3 C 18,9 C 11,7 C 37 % 1026,9 hPa 0,0 l/m 2 min 0 min 754 W/m 6,4 km/h (2 Bft) 97,87 %
25.03.2020 12:36 12,3 C 17,8 C 12,2 C 37 % 1026,9 hPa 0,0 l/m 2 min 0 min 757 W/m 9,7 km/h (2 Bft) 97,87 %
25.03.2020 12:38 12,4 C 18,9 C 12,2 C 39 % 1026,9 hPa 0,0 l/m 2 min 0 min 757 W/m 6,4 km/h (2 Bft) 97,87 %
25.03.2020 12:40 12,4 C 18,9 C 13,9 C 38 % 1026,9 hPa 0,0 l/m 2 min 0 min 755 W/m 12,9 km/h (3 Bft) 97,87 %
25.03.2020 12:42 12,5 C 18,9 C 15,0 C 38 % 1026,8 hPa 0,0 l/m 2 min 0 min 755 W/m 9,7 km/h (2 Bft) 97,87 %
25.03.2020 12:44 12,6 C 19,4 C 17,8 C 38 % 1026,8 hPa 0,0 l/m 2 min 0 min 757 W/m 9,7 km/h (2 Bft) 97,83 %
25.03.2020 12:46 12,6 C 19,4 C 19,4 C 38 % 1026,7 hPa 0,0 l/m 2 min 0 min 757 W/m 9,7 km/h (2 Bft) 97,87 %
25.03.2020 12:48 12,7 C 19,4 C 20,6 C 39 % 1026,8 hPa 0,0 l/m 2 min 0 min 753 W/m 9,7 km/h (2 Bft) 97,87 %
25.03.2020 12:50 12,8 C 19,4 C 20,6 C 38 % 1026,7 hPa 0,0 l/m 2 min 0 min 754 W/m 6,4 km/h (2 Bft) 95,74 %
25.03.2020 12:52 12,9 C 18,9 C 20,6 C 37 % 1026,6 hPa 0,0 l/m 2 min 0 min 756 W/m 16,1 km/h (3 Bft) 97,87 %
25.03.2020 12:54 12,9 C 18,9 C 20,6 C 36 % 1026,6 hPa 0,0 l/m 2 min 0 min 760 W/m 6,4 km/h (2 Bft) 97,87 %
25.03.2020 12:56 12,9 C 18,3 C 20,0 C 34 % 1026,6 hPa 0,0 l/m 2 min 0 min 759 W/m 16,1 km/h (3 Bft) 95,65 %
25.03.2020 12:58 12,9 C 18,3 C 19,4 C 35 % 1026,5 hPa 0,0 l/m 2 min 0 min 757 W/m 3,2 km/h (1 Bft) 95,74 %
25.03.2020 13:00 12,9 C 18,3 C 20,0 C 35 % 1026,5 hPa 0,0 l/m 2 min 0 min 754 W/m 16,1 km/h (3 Bft) 97,87 %
25.03.2020 13:02 12,9 C 18,9 C 20,6 C 36 % 1026,4 hPa 0,0 l/m 2 min 0 min 753 W/m 6,4 km/h (2 Bft) 100,00 %
25.03.2020 13:04 13,0 C 19,4 C 21,1 C 36 % 1026,3 hPa 0,0 l/m 2 min 0 min 756 W/m 6,4 km/h (2 Bft) 100,00 %
25.03.2020 13:06 13,1 C 20,0 C 21,7 C 37 % 1026,3 hPa 0,0 l/m 2 min 0 min 754 W/m 3,2 km/h (1 Bft) 100,00 %
25.03.2020 13:08 13,2 C 19,4 C 21,7 C 36 % 1026,3 hPa 0,0 l/m 2 min 0 min 756 W/m 6,4 km/h (2 Bft) 97,83 %
25.03.2020 13:10 13,2 C 19,4 C 21,1 C 37 % 1026,3 hPa 0,0 l/m 2 min 0 min 752 W/m 9,7 km/h (2 Bft) 100,00 %
25.03.2020 13:12 13,3 C 18,9 C 20,6 C 36 % 1026,2 hPa 0,0 l/m 2 min 0 min 750 W/m 12,9 km/h (3 Bft) 100,00 %
25.03.2020 13:14 13,3 C 19,4 C 21,1 C 36 % 1026,2 hPa 0,0 l/m 2 min 0 min 747 W/m 9,7 km/h (2 Bft) 100,00 %
25.03.2020 13:16 13,3 C 18,9 C 21,1 C 37 % 1026,1 hPa 0,0 l/m 2 min 0 min 744 W/m 9,7 km/h (2 Bft) 95,74 %
25.03.2020 13:18 13,3 C 18,9 C 21,1 C 36 % 1026,1 hPa 0,0 l/m 2 min 0 min 743 W/m 9,7 km/h (2 Bft) 97,87 %
25.03.2020 13:20 13,3 C 18,9 C 21,1 C 37 % 1026,1 hPa 0,0 l/m 2 min 0 min 745 W/m 12,9 km/h (3 Bft) 97,83 %
25.03.2020 13:22 13,3 C 18,9 C 21,1 C 35 % 1026,0 hPa 0,0 l/m 2 min 0 min 743 W/m 16,1 km/h (3 Bft) 97,87 %
25.03.2020 13:24 13,3 C 18,9 C 20,6 C 35 % 1026,0 hPa 0,0 l/m 2 min 0 min 742 W/m 3,2 km/h (1 Bft) 97,87 %
25.03.2020 13:26 13,3 C 18,9 C 20,6 C 38 % 1025,9 hPa 0,0 l/m 2 min 0 min 741 W/m 6,4 km/h (2 Bft) 97,87 %
25.03.2020 13:28 13,4 C 20,0 C 20,6 C 38 % 1025,9 hPa 0,0 l/m 2 min 0 min 739 W/m 6,4 km/h (2 Bft) 93,62 %
25.03.2020 13:30 13,4 C 20,0 C 20,6 C 37 % 1025,9 hPa 0,0 l/m 2 min 0 min 735 W/m 9,7 km/h (2 Bft) 97,87 %
25.03.2020 13:32 13,5 C 18,9 C 17,8 C 36 % 1025,9 hPa 0,0 l/m 2 min 0 min 733 W/m 9,7 km/h (2 Bft) 95,65 %
25.03.2020 13:34 13,6 C 19,4 C 16,7 C 38 % 1025,9 hPa 0,0 l/m 2 min 0 min 733 W/m 12,9 km/h (3 Bft) 97,87 %
25.03.2020 13:36 13,6 C 19,4 C 16,1 C 38 % 1025,8 hPa 0,0 l/m 2 min 0 min 733 W/m 6,4 km/h (2 Bft) 97,87 %
25.03.2020 13:38 13,6 C 18,9 C 15,6 C 36 % 1025,8 hPa 0,0 l/m 2 min 0 min 728 W/m 9,7 km/h (2 Bft) 93,62 %
25.03.2020 13:40 13,6 C 18,9 C 15,0 C 36 % 1025,7 hPa 0,0 l/m 2 min 0 min 726 W/m 12,9 km/h (3 Bft) 97,87 %
25.03.2020 13:42 13,6 C 18,9 C 14,4 C 37 % 1025,7 hPa 0,0 l/m 2 min 0 min 724 W/m 6,4 km/h (2 Bft) 95,65 %
25.03.2020 13:44 13,6 C 19,4 C 13,9 C 36 % 1025,7 hPa 0,0 l/m 2 min 0 min 723 W/m 3,2 km/h (1 Bft) 95,74 %
25.03.2020 13:46 13,7 C 20,0 C 14,4 C 39 % 1025,7 hPa 0,0 l/m 2 min 0 min 720 W/m 6,4 km/h (2 Bft) 97,87 %
25.03.2020 13:48 13,7 C 20,0 C 13,9 C 38 % 1025,7 hPa 0,0 l/m 2 min 0 min 716 W/m 6,4 km/h (2 Bft) 97,87 %
25.03.2020 13:50 13,8 C 20,0 C 14,4 C 37 % 1025,6 hPa 0,0 l/m 2 min 0 min 718 W/m 6,4 km/h (2 Bft) 97,87 %
25.03.2020 13:52 13,8 C 20,0 C 13,9 C 36 % 1025,6 hPa 0,0 l/m 2 min 0 min 715 W/m 3,2 km/h (1 Bft) 97,87 %
25.03.2020 13:54 13,9 C 18,9 C 13,9 C 35 % 1025,5 hPa 0,0 l/m 2 min 0 min 715 W/m 6,4 km/h (2 Bft) 100,00 %
25.03.2020 13:56 13,9 C 18,3 C 13,3 C 35 % 1025,5 hPa 0,0 l/m 2 min 0 min 712 W/m 3,2 km/h (1 Bft) 95,74 %
25.03.2020 13:58 13,8 C 18,9 C 13,3 C 35 % 1025,5 hPa 0,0 l/m 2 min 0 min 709 W/m 6,4 km/h (2 Bft) 95,74 %
25.03.2020 14:00 13,8 C 18,9 C 13,9 C 35 % 1025,5 hPa 0,0 l/m 2 min 0 min 706 W/m 9,7 km/h (2 Bft) 95,74 %
25.03.2020 14:02 13,8 C 19,4 C 13,9 C 36 % 1025,5 hPa 0,0 l/m 2 min 0 min 706 W/m 6,4 km/h (2 Bft) 93,62 %
25.03.2020 14:04 13,9 C 20,0 C 13,9 C 36 % 1025,5 hPa 0,0 l/m 2 min 0 min 702 W/m 9,7 km/h (2 Bft) 97,87 %
25.03.2020 14:06 13,9 C 19,4 C 14,4 C 37 % 1025,5 hPa 0,0 l/m 2 min 0 min 702 W/m 9,7 km/h (2 Bft) 97,83 %
25.03.2020 14:08 13,9 C 18,9 C 13,9 C 36 % 1025,5 hPa 0,0 l/m 2 min 0 min 700 W/m 9,7 km/h (2 Bft) 97,87 %
25.03.2020 14:10 13,9 C 18,9 C 13,9 C 35 % 1025,5 hPa 0,0 l/m 2 min 0 min 698 W/m 3,2 km/h (1 Bft) 97,87 %
25.03.2020 14:12 13,9 C 18,9 C 14,4 C 37 % 1025,4 hPa 0,0 l/m 2 min 0 min 694 W/m 6,4 km/h (2 Bft) 97,87 %
25.03.2020 14:14 14,0 C 18,9 C 13,9 C 36 % 1025,4 hPa 0,0 l/m 2 min 0 min 690 W/m 12,9 km/h (3 Bft) 97,87 %
25.03.2020 14:16 13,9 C 18,9 C 13,9 C 35 % 1025,4 hPa 0,0 l/m 2 min 0 min 686 W/m 3,2 km/h (1 Bft) 95,74 %
25.03.2020 14:18 13,9 C 18,3 C 13,9 C 35 % 1025,3 hPa 0,0 l/m 2 min 0 min 682 W/m 9,7 km/h (2 Bft) 97,83 %
25.03.2020 14:20 13,9 C 18,9 C 13,9 C 36 % 1025,3 hPa 0,0 l/m 2 min 0 min 680 W/m 6,4 km/h (2 Bft) 95,74 %
25.03.2020 14:22 13,9 C 18,3 C 13,9 C 36 % 1025,3 hPa 0,0 l/m 2 min 0 min 679 W/m 12,9 km/h (3 Bft) 97,87 %
25.03.2020 14:24 13,9 C 18,9 C 13,9 C 36 % 1025,3 hPa 0,0 l/m 2 min 0 min 675 W/m 9,7 km/h (2 Bft) 97,87 %
25.03.2020 14:26 13,9 C 18,9 C 13,9 C 37 % 1025,2 hPa 0,0 l/m 2 min 0 min 670 W/m 6,4 km/h (2 Bft) 95,74 %
25.03.2020 14:28 13,9 C 18,9 C 13,9 C 36 % 1025,2 hPa 0,0 l/m 2 min 0 min 670 W/m 3,2 km/h (1 Bft) 97,87 %
25.03.2020 14:30 14,0 C 18,9 C 14,4 C 36 % 1025,2 hPa 0,0 l/m 2 min 0 min 663 W/m 6,4 km/h (2 Bft) 97,83 %
25.03.2020 14:32 14,0 C 18,3 C 14,4 C 35 % 1025,2 hPa 0,0 l/m 2 min 0 min 662 W/m 9,7 km/h (2 Bft) 97,87 %
25.03.2020 14:34 14,0 C 18,3 C 13,9 C 35 % 1025,2 hPa 0,0 l/m 2 min 0 min 660 W/m 9,7 km/h (2 Bft) 97,87 %
25.03.2020 14:36 13,9 C 17,8 C 13,9 C 35 % 1025,1 hPa 0,0 l/m 2 min 0 min 657 W/m 12,9 km/h (3 Bft) 100,00 %
25.03.2020 14:38 13,9 C 17,8 C 13,9 C 36 % 1025,1 hPa 0,0 l/m 2 min 0 min 651 W/m 9,7 km/h (2 Bft) 97,87 %
25.03.2020 14:40 13,9 C 17,8 C 13,9 C 36 % 1025,1 hPa 0,0 l/m 2 min 0 min 649 W/m 12,9 km/h (3 Bft) 97,87 %
25.03.2020 14:42 13,8 C 17,8 C 13,9 C 35 % 1025,1 hPa 0,0 l/m 2 min 0 min 643 W/m 16,1 km/h (3 Bft) 100,00 %
25.03.2020 14:44 13,8 C 18,3 C 13,9 C 36 % 1025,0 hPa 0,0 l/m 2 min 0 min 642 W/m 12,9 km/h (3 Bft) 97,87 %
25.03.2020 14:46 13,8 C 17,8 C 13,9 C 35 % 1025,0 hPa 0,0 l/m 2 min 0 min 640 W/m 16,1 km/h (3 Bft) 100,00 %
25.03.2020 14:48 13,8 C 17,2 C 13,9 C 34 % 1025,0 hPa 0,0 l/m 2 min 0 min 636 W/m 16,1 km/h (3 Bft) 100,00 %
25.03.2020 14:50 13,7 C 17,2 C 13,3 C 35 % 1024,9 hPa 0,0 l/m 2 min 0 min 635 W/m 9,7 km/h (2 Bft) 100,00 %
25.03.2020 14:52 13,7 C 17,8 C 13,9 C 37 % 1024,9 hPa 0,0 l/m 2 min 0 min 631 W/m 12,9 km/h (3 Bft) 97,83 %
25.03.2020 14:54 13,7 C 18,9 C 13,9 C 37 % 1025,0 hPa 0,0 l/m 2 min 0 min 630 W/m 6,4 km/h (2 Bft) 100,00 %
25.03.2020 14:56 13,7 C 17,8 C 13,9 C 36 % 1024,9 hPa 0,0 l/m 2 min 0 min 626 W/m 16,1 km/h (3 Bft) 100,00 %
25.03.2020 14:58 13,8 C 17,8 C 13,9 C 35 % 1024,8 hPa 0,0 l/m 2 min 0 min 623 W/m 16,1 km/h (3 Bft) 100,00 %
25.03.2020 15:00 13,7 C 17,2 C 13,9 C 35 % 1024,7 hPa 0,0 l/m 2 min 0 min 618 W/m 6,4 km/h (2 Bft) 100,00 %
25.03.2020 15:02 13,7 C 17,2 C 13,9 C 36 % 1024,8 hPa 0,0 l/m 2 min 0 min 612 W/m 16,1 km/h (3 Bft) 97,87 %
25.03.2020 15:04 13,7 C 17,2 C 13,3 C 36 % 1024,7 hPa 0,0 l/m 2 min 0 min 606 W/m 12,9 km/h (3 Bft) 100,00 %
25.03.2020 15:06 13,7 C 17,8 C 13,3 C 36 % 1024,7 hPa 0,0 l/m 2 min 0 min 605 W/m 12,9 km/h (3 Bft) 100,00 %
25.03.2020 15:08 13,7 C 17,2 C 13,9 C 35 % 1024,7 hPa 0,0 l/m 2 min 0 min 601 W/m 12,9 km/h (3 Bft) 100,00 %
25.03.2020 15:10 13,7 C 17,8 C 13,9 C 36 % 1024,7 hPa 0,0 l/m 2 min 0 min 597 W/m 12,9 km/h (3 Bft) 100,00 %
25.03.2020 15:12 13,7 C 17,8 C 13,3 C 36 % 1024,7 hPa 0,0 l/m 2 min 0 min 591 W/m 9,7 km/h (2 Bft) 100,00 %
25.03.2020 15:14 13,7 C 17,8 C 13,9 C 36 % 1024,7 hPa 0,0 l/m 2 min 0 min 587 W/m 3,2 km/h (1 Bft) 97,87 %
25.03.2020 15:16 13,7 C 17,8 C 13,9 C 36 % 1024,6 hPa 0,0 l/m 2 min 0 min 583 W/m 6,4 km/h (2 Bft) 100,00 %
25.03.2020 15:18 13,7 C 18,3 C 13,9 C 35 % 1024,6 hPa 0,0 l/m 2 min 0 min 578 W/m 6,4 km/h (2 Bft) 100,00 %
25.03.2020 15:20 13,8 C 18,3 C 14,4 C 37 % 1024,6 hPa 0,0 l/m 2 min 0 min 576 W/m 6,4 km/h (2 Bft) 100,00 %
25.03.2020 15:22 13,8 C 18,3 C 14,4 C 38 % 1024,6 hPa 0,0 l/m 2 min 0 min 573 W/m 12,9 km/h (3 Bft) 100,00 %
25.03.2020 15:24 13,8 C 17,8 C 13,9 C 36 % 1024,6 hPa 0,0 l/m 2 min 0 min 572 W/m 6,4 km/h (2 Bft) 100,00 %
25.03.2020 15:26 13,8 C 17,8 C 13,9 C 36 % 1024,5 hPa 0,0 l/m 2 min 0 min 570 W/m 12,9 km/h (3 Bft) 100,00 %
25.03.2020 15:28 13,9 C 17,8 C 14,4 C 37 % 1024,5 hPa 0,0 l/m 2 min 0 min 564 W/m 6,4 km/h (2 Bft) 97,83 %
25.03.2020 15:30 13,9 C 17,2 C 14,4 C 36 % 1024,4 hPa 0,0 l/m 2 min 0 min 536 W/m 9,7 km/h (2 Bft) 100,00 %
25.03.2020 15:32 13,9 C 17,8 C 14,4 C 36 % 1024,4 hPa 0,0 l/m 2 min 0 min 542 W/m 6,4 km/h (2 Bft) 100,00 %
25.03.2020 15:34 13,9 C 17,8 C 13,9 C 36 % 1024,4 hPa 0,0 l/m 2 min 0 min 545 W/m 6,4 km/h (2 Bft) 97,87 %
25.03.2020 15:36 13,9 C 17,2 C 13,9 C 36 % 1024,3 hPa 0,0 l/m 2 min 0 min 538 W/m 16,1 km/h (3 Bft) 97,87 %
25.03.2020 15:38 13,9 C 17,2 C 13,9 C 36 % 1024,3 hPa 0,0 l/m 2 min 0 min 527 W/m 6,4 km/h (2 Bft) 100,00 %
25.03.2020 15:40 13,9 C 17,2 C 13,9 C 36 % 1024,3 hPa 0,0 l/m 2 min 0 min 516 W/m 9,7 km/h (2 Bft) 100,00 %
25.03.2020 15:42 13,9 C 17,2 C 13,9 C 36 % 1024,2 hPa 0,0 l/m 2 min 0 min 518 W/m 12,9 km/h (3 Bft) 97,87 %
25.03.2020 15:44 13,9 C 17,2 C 13,9 C 36 % 1024,2 hPa 0,0 l/m 2 min 0 min 515 W/m 12,9 km/h (3 Bft) 97,87 %
25.03.2020 15:46 13,9 C 17,2 C 13,9 C 36 % 1024,2 hPa 0,0 l/m 2 min 0 min 510 W/m 16,1 km/h (3 Bft) 100,00 %
25.03.2020 15:48 13,9 C 17,2 C 14,4 C 36 % 1024,2 hPa 0,0 l/m 2 min 0 min 504 W/m 9,7 km/h (2 Bft) 100,00 %
25.03.2020 15:50 13,9 C 17,2 C 16,1 C 37 % 1024,2 hPa 0,0 l/m 2 min 0 min 499 W/m 6,4 km/h (2 Bft) 100,00 %
25.03.2020 15:52 13,9 C 17,2 C 16,1 C 37 % 1024,2 hPa 0,0 l/m 2 min 0 min 494 W/m 12,9 km/h (3 Bft) 95,74 %
25.03.2020 15:54 13,9 C 16,7 C 15,6 C 36 % 1024,1 hPa 0,0 l/m 2 min 0 min 488 W/m 12,9 km/h (3 Bft) 97,87 %
25.03.2020 15:56 13,8 C 16,7 C 15,0 C 36 % 1024,1 hPa 0,0 l/m 2 min 0 min 478 W/m 9,7 km/h (2 Bft) 97,87 %
25.03.2020 15:58 13,9 C 16,7 C 15,0 C 36 % 1024,1 hPa 0,0 l/m 2 min 0 min 477 W/m 6,4 km/h (2 Bft) 97,87 %
25.03.2020 16:00 13,8 C 16,7 C 16,7 C 36 % 1024,1 hPa 0,0 l/m 2 min 0 min 468 W/m 16,1 km/h (3 Bft) 97,87 %
25.03.2020 16:02 13,8 C 16,7 C 17,8 C 35 % 1024,1 hPa 0,0 l/m 2 min 0 min 462 W/m 9,7 km/h (2 Bft) 97,83 %
25.03.2020 16:04 13,8 C 16,7 C 18,3 C 35 % 1024,0 hPa 0,0 l/m 2 min 0 min 467 W/m 16,1 km/h (3 Bft) 97,87 %
25.03.2020 16:06 13,8 C 16,7 C 18,3 C 36 % 1024,0 hPa 0,0 l/m 2 min 0 min 462 W/m 6,4 km/h (2 Bft) 93,62 %
25.03.2020 16:08 13,7 C 16,7 C 17,8 C 36 % 1024,0 hPa 0,0 l/m 2 min 0 min 473 W/m 9,7 km/h (2 Bft) 95,74 %
25.03.2020 16:10 13,7 C 16,1 C 16,7 C 35 % 1023,9 hPa 0,0 l/m 2 min 0 min 480 W/m 16,1 km/h (3 Bft) 95,74 %
25.03.2020 16:12 13,6 C 16,1 C 16,7 C 34 % 1023,9 hPa 0,0 l/m 2 min 0 min 486 W/m 16,1 km/h (3 Bft) 97,87 %
25.03.2020 16:14 13,6 C 15,6 C 16,1 C 34 % 1023,9 hPa 0,0 l/m 2 min 0 min 491 W/m 9,7 km/h (2 Bft) 95,65 %
25.03.2020 16:16 13,5 C 15,6 C 15,6 C 35 % 1023,9 hPa 0,0 l/m 2 min 0 min 335 W/m 12,9 km/h (3 Bft) 93,62 %
25.03.2020 16:18 13,4 C 15,6 C 15,0 C 35 % 1023,9 hPa 0,0 l/m 2 min 0 min 384 W/m 9,7 km/h (2 Bft) 93,62 %
25.03.2020 16:20 13,4 C 15,6 C 15,0 C 36 % 1023,9 hPa 0,0 l/m 2 min 0 min 406 W/m 6,4 km/h (2 Bft) 95,74 %
25.03.2020 16:22 13,4 C 15,0 C 14,4 C 35 % 1023,9 hPa 0,0 l/m 2 min 0 min 296 W/m 6,4 km/h (2 Bft) 95,74 %
25.03.2020 16:24 13,3 C 13,9 C 13,9 C 34 % 1023,9 hPa 0,0 l/m 2 min 0 min 226 W/m 12,9 km/h (3 Bft) 95,74 %
25.03.2020 16:26 13,2 C 13,3 C 12,8 C 35 % 1023,9 hPa 0,0 l/m 2 min 0 min 228 W/m 12,9 km/h (3 Bft) 95,65 %
25.03.2020 16:28 13,1 C 14,4 C 12,2 C 35 % 1023,9 hPa 0,0 l/m 2 min 0 min 375 W/m 16,1 km/h (3 Bft) 93,62 %
25.03.2020 16:30 13,1 C 15,0 C 12,2 C 35 % 1023,9 hPa 0,0 l/m 2 min 0 min 406 W/m 16,1 km/h (3 Bft) 95,74 %
25.03.2020 16:32 13,0 C 14,4 C 11,7 C 35 % 1023,9 hPa 0,0 l/m 2 min 0 min 353 W/m 19,3 km/h (3 Bft) 93,62 %
25.03.2020 16:34 12,9 C 13,9 C 11,7 C 36 % 1023,9 hPa 0,0 l/m 2 min 0 min 240 W/m 12,9 km/h (3 Bft) 93,62 %
25.03.2020 16:36 12,8 C 14,4 C 11,1 C 35 % 1023,8 hPa 0,0 l/m 2 min 0 min 347 W/m 16,1 km/h (3 Bft) 93,62 %
25.03.2020 16:38 12,8 C 15,0 C 11,1 C 35 % 1023,8 hPa 0,0 l/m 2 min 0 min 420 W/m 12,9 km/h (3 Bft) 93,48 %
25.03.2020 16:40 12,8 C 15,6 C 11,1 C 36 % 1023,8 hPa 0,0 l/m 2 min 0 min 404 W/m 9,7 km/h (2 Bft) 91,49 %
25.03.2020 16:42 12,8 C 15,0 C 11,1 C 35 % 1023,8 hPa 0,0 l/m 2 min 0 min 398 W/m 9,7 km/h (2 Bft) 91,49 %
25.03.2020 16:44 12,7 C 14,4 C 11,1 C 35 % 1023,8 hPa 0,0 l/m 2 min 0 min 364 W/m 9,7 km/h (2 Bft) 95,74 %
25.03.2020 16:46 12,7 C 12,8 C 11,1 C 36 % 1023,7 hPa 0,0 l/m 0 min 0 min 146 W/m 9,7 km/h (2 Bft) 91,49 %
25.03.2020 16:48 12,7 C 12,2 C 11,1 C 37 % 1023,7 hPa 0,0 l/m 0 min 0 min 122 W/m 6,4 km/h (2 Bft) 93,48 %
25.03.2020 16:50 12,6 C 11,7 C 10,6 C 36 % 1023,8 hPa 0,0 l/m 0 min 0 min 116 W/m 9,7 km/h (2 Bft) 93,62 %
25.03.2020 16:52 12,4 C 11,1 C 10,0 C 36 % 1023,7 hPa 0,0 l/m 0 min 0 min 102 W/m 12,9 km/h (3 Bft) 93,62 %
25.03.2020 16:54 12,3 C 11,1 C 10,0 C 36 % 1023,7 hPa 0,0 l/m 0 min 0 min 127 W/m 9,7 km/h (2 Bft) 91,49 %
25.03.2020 16:56 12,2 C 11,1 C 10,0 C 36 % 1023,7 hPa 0,0 l/m 2 min 0 min 169 W/m 9,7 km/h (2 Bft) 91,49 %
25.03.2020 16:58 12,1 C 11,1 C 10,0 C 38 % 1023,7 hPa 0,0 l/m 2 min 0 min 296 W/m 9,7 km/h (2 Bft) 97,87 %
25.03.2020 17:00 12,0 C 11,1 C 10,0 C 37 % 1023,7 hPa 0,0 l/m 2 min 0 min 204 W/m 12,9 km/h (3 Bft) 95,65 %
25.03.2020 17:02 11,9 C 11,1 C 10,0 C 36 % 1023,7 hPa 0,0 l/m 0 min 0 min 104 W/m 6,4 km/h (2 Bft) 97,87 %
25.03.2020 17:04 11,8 C 11,1 C 10,0 C 37 % 1023,7 hPa 0,0 l/m 0 min 0 min 91 W/m 9,7 km/h (2 Bft) 97,87 %
25.03.2020 17:06 11,7 C 11,1 C 10,0 C 36 % 1023,7 hPa 0,0 l/m 0 min 0 min 86 W/m 16,1 km/h (3 Bft) 97,87 %
25.03.2020 17:08 11,7 C 11,1 C 10,0 C 37 % 1023,7 hPa 0,0 l/m 0 min 0 min 78 W/m 6,4 km/h (2 Bft) 97,87 %
25.03.2020 17:10 11,6 C 11,1 C 10,0 C 38 % 1023,6 hPa 0,0 l/m 0 min 0 min 70 W/m 9,7 km/h (2 Bft) 97,87 %
25.03.2020 17:12 11,6 C 11,1 C 10,0 C 37 % 1023,5 hPa 0,0 l/m 0 min 0 min 64 W/m 12,9 km/h (3 Bft) 95,65 %
25.03.2020 17:14 11,5 C 10,6 C 10,0 C 37 % 1023,5 hPa 0,0 l/m 0 min 0 min 61 W/m 16,1 km/h (3 Bft) 95,74 %
25.03.2020 17:16 11,4 C 10,6 C 9,4 C 37 % 1023,5 hPa 0,0 l/m 0 min 0 min 59 W/m 12,9 km/h (3 Bft) 97,87 %
25.03.2020 17:18 11,4 C 10,6 C 9,4 C 38 % 1023,5 hPa 0,0 l/m 0 min 0 min 57 W/m 9,7 km/h (2 Bft) 97,87 %
25.03.2020 17:20 11,4 C 10,6 C 9,4 C 37 % 1023,5 hPa 0,0 l/m 0 min 0 min 54 W/m 9,7 km/h (2 Bft) 97,87 %
25.03.2020 17:22 11,3 C 10,6 C 9,4 C 38 % 1023,4 hPa 0,0 l/m 0 min 0 min 53 W/m 6,4 km/h (2 Bft) 97,87 %
25.03.2020 17:24 11,3 C 10,6 C 9,4 C 37 % 1023,4 hPa 0,0 l/m 0 min 0 min 53 W/m 9,7 km/h (2 Bft) 97,87 %
25.03.2020 17:26 11,2 C 10,6 C 9,4 C 38 % 1023,4 hPa 0,0 l/m 0 min 0 min 53 W/m 9,7 km/h (2 Bft) 100,00 %
25.03.2020 17:28 11,2 C 10,6 C 9,4 C 37 % 1023,3 hPa 0,0 l/m 0 min 0 min 50 W/m 9,7 km/h (2 Bft) 100,00 %
25.03.2020 17:30 11,1 C 10,6 C 9,4 C 37 % 1023,3 hPa 0,0 l/m 0 min 0 min 48 W/m 22,5 km/h (4 Bft) 100,00 %
25.03.2020 17:32 11,1 C 10,0 C 9,4 C 38 % 1023,2 hPa 0,0 l/m 0 min 0 min 50 W/m 9,7 km/h (2 Bft) 100,00 %
25.03.2020 17:34 11,1 C 10,0 C 9,4 C 38 % 1023,2 hPa 0,0 l/m 0 min 0 min 49 W/m 16,1 km/h (3 Bft) 100,00 %
25.03.2020 17:36 11,0 C 10,0 C 9,4 C 38 % 1023,2 hPa 0,0 l/m 0 min 0 min 48 W/m 6,4 km/h (2 Bft) 97,87 %
25.03.2020 17:38 10,9 C 10,0 C 9,4 C 38 % 1023,3 hPa 0,0 l/m 0 min 0 min 46 W/m 12,9 km/h (3 Bft) 100,00 %
25.03.2020 17:40 10,9 C 10,0 C 9,4 C 39 % 1023,2 hPa 0,0 l/m 0 min 0 min 44 W/m 12,9 km/h (3 Bft) 97,87 %
25.03.2020 17:42 10,9 C 10,0 C 8,9 C 39 % 1023,3 hPa 0,0 l/m 0 min 0 min 42 W/m 9,7 km/h (2 Bft) 100,00 %
25.03.2020 17:44 10,8 C 10,0 C 8,9 C 38 % 1023,2 hPa 0,0 l/m 0 min 0 min 42 W/m 16,1 km/h (3 Bft) 100,00 %
25.03.2020 17:46 10,8 C 10,0 C 8,9 C 38 % 1023,2 hPa 0,0 l/m 0 min 0 min 42 W/m 9,7 km/h (2 Bft) 95,74 %
25.03.2020 17:48 10,8 C 10,0 C 8,9 C 38 % 1023,2 hPa 0,0 l/m 0 min 0 min 41 W/m 9,7 km/h (2 Bft) 100,00 %
25.03.2020 17:50 10,7 C 10,0 C 8,9 C 39 % 1023,2 hPa 0,0 l/m 0 min 0 min 40 W/m 6,4 km/h (2 Bft) 100,00 %
25.03.2020 17:52 10,7 C 10,0 C 8,9 C 39 % 1023,2 hPa 0,0 l/m 0 min 0 min 40 W/m 6,4 km/h (2 Bft) 100,00 %
25.03.2020 17:54 10,6 C 9,4 C 8,9 C 39 % 1023,2 hPa 0,0 l/m 0 min 0 min 40 W/m 9,7 km/h (2 Bft) 97,83 %
25.03.2020 17:56 10,6 C 9,4 C 8,9 C 39 % 1023,2 hPa 0,0 l/m 0 min 0 min 40 W/m 12,9 km/h (3 Bft) 100,00 %
25.03.2020 17:58 10,6 C 9,4 C 8,9 C 39 % 1023,2 hPa 0,0 l/m 0 min 0 min 39 W/m 12,9 km/h (3 Bft) 100,00 %
25.03.2020 18:00 10,5 C 9,4 C 8,9 C 39 % 1023,2 hPa 0,0 l/m 0 min 0 min 39 W/m 16,1 km/h (3 Bft) 100,00 %
25.03.2020 18:02 10,4 C 9,4 C 8,9 C 38 % 1023,2 hPa 0,0 l/m 0 min 0 min 39 W/m 12,9 km/h (3 Bft) 100,00 %
25.03.2020 18:04 10,4 C 9,4 C 8,9 C 39 % 1023,1 hPa 0,0 l/m 0 min 0 min 38 W/m 6,4 km/h (2 Bft) 100,00 %
25.03.2020 18:08 10,3 C 9,4 C 8,3 C 39 % 1023,2 hPa 0,0 l/m 0 min 0 min 36 W/m 6,4 km/h (2 Bft) 100,00 %
25.03.2020 18:10 10,3 C 9,4 C 8,3 C 40 % 1023,1 hPa 0,0 l/m 0 min 0 min 35 W/m 9,7 km/h (2 Bft) 97,87 %
25.03.2020 18:12 10,2 C 8,9 C 8,3 C 41 % 1023,1 hPa 0,0 l/m 0 min 0 min 33 W/m 9,7 km/h (2 Bft) 98,18 %
25.03.2020 18:14 10,2 C 8,9 C 8,3 C 41 % 1023,1 hPa 0,0 l/m 0 min 0 min 33 W/m 6,4 km/h (2 Bft) 100,00 %
25.03.2020 18:16 10,2 C 8,9 C 8,3 C 40 % 1023,1 hPa 0,0 l/m 0 min 0 min 33 W/m 3,2 km/h (1 Bft) 97,83 %
25.03.2020 18:18 10,1 C 8,9 C 8,3 C 40 % 1023,1 hPa 0,0 l/m 0 min 0 min 32 W/m 6,4 km/h (2 Bft) 97,87 %
25.03.2020 18:20 10,1 C 8,9 C 8,3 C 40 % 1023,2 hPa 0,0 l/m 0 min 0 min 31 W/m 6,4 km/h (2 Bft) 97,87 %
25.03.2020 18:22 10,0 C 8,9 C 8,3 C 39 % 1023,1 hPa 0,0 l/m 0 min 0 min 30 W/m 6,4 km/h (2 Bft) 95,74 %
25.03.2020 18:24 10,0 C 8,9 C 8,3 C 39 % 1023,1 hPa 0,0 l/m 0 min 0 min 30 W/m 9,7 km/h (2 Bft) 97,87 %
25.03.2020 18:26 10,0 C 8,9 C 8,3 C 39 % 1023,1 hPa 0,0 l/m 0 min 0 min 29 W/m 6,4 km/h (2 Bft) 97,87 %
25.03.2020 18:28 9,9 C 8,9 C 7,8 C 40 % 1023,1 hPa 0,0 l/m 0 min 0 min 27 W/m 6,4 km/h (2 Bft) 95,65 %
25.03.2020 18:30 9,9 C 8,9 C 7,8 C 40 % 1023,1 hPa 0,0 l/m 0 min 0 min 25 W/m 12,9 km/h (3 Bft) 97,87 %
25.03.2020 18:32 9,9 C 8,9 C 7,8 C 40 % 1023,1 hPa 0,0 l/m 0 min 0 min 25 W/m 9,7 km/h (2 Bft) 97,87 %
25.03.2020 18:34 9,8 C 8,9 C 7,8 C 40 % 1023,1 hPa 0,0 l/m 2 min 0 min 25 W/m 12,9 km/h (3 Bft) 97,87 %
25.03.2020 18:36 9,8 C 8,3 C 7,8 C 41 % 1023,1 hPa 0,0 l/m 2 min 0 min 23 W/m 6,4 km/h (2 Bft) 95,74 %
25.03.2020 18:38 9,7 C 8,3 C 7,8 C 41 % 1023,1 hPa 0,0 l/m 2 min 0 min 22 W/m 6,4 km/h (2 Bft) 97,83 %
25.03.2020 18:40 9,7 C 8,3 C 7,8 C 40 % 1023,1 hPa 0,0 l/m 2 min 0 min 21 W/m 6,4 km/h (2 Bft) 97,87 %
25.03.2020 18:42 9,6 C 8,3 C 7,8 C 41 % 1023,1 hPa 0,0 l/m 2 min 0 min 21 W/m 9,7 km/h (2 Bft) 97,87 %
25.03.2020 18:44 9,6 C 8,3 C 7,8 C 41 % 1023,1 hPa 0,0 l/m 2 min 0 min 21 W/m 9,7 km/h (2 Bft) 97,87 %
25.03.2020 18:46 9,5 C 8,3 C 7,8 C 41 % 1023,1 hPa 0,0 l/m 0 min 0 min 19 W/m 6,4 km/h (2 Bft) 97,87 %
25.03.2020 18:48 9,4 C 8,3 C 7,2 C 41 % 1023,1 hPa 0,0 l/m 0 min 0 min 17 W/m 6,4 km/h (2 Bft) 95,74 %
25.03.2020 18:50 9,4 C 8,3 C 7,2 C 41 % 1023,1 hPa 0,0 l/m 0 min 0 min 13 W/m 9,7 km/h (2 Bft) 100,00 %
25.03.2020 18:52 9,4 C 8,3 C 7,2 C 41 % 1023,1 hPa 0,0 l/m 0 min 0 min 11 W/m 6,4 km/h (2 Bft) 100,00 %
25.03.2020 18:54 9,3 C 7,8 C 7,2 C 41 % 1023,1 hPa 0,0 l/m 0 min 0 min 9 W/m 9,7 km/h (2 Bft) 100,00 %
25.03.2020 18:56 9,3 C 7,8 C 7,2 C 41 % 1023,0 hPa 0,0 l/m 0 min 0 min 9 W/m 6,4 km/h (2 Bft) 97,87 %
25.03.2020 18:58 9,3 C 7,8 C 7,2 C 41 % 1023,1 hPa 0,0 l/m 0 min 0 min 9 W/m 9,7 km/h (2 Bft) 97,87 %
25.03.2020 19:00 9,2 C 7,8 C 7,2 C 41 % 1023,1 hPa 0,0 l/m 0 min 0 min 7 W/m 3,2 km/h (1 Bft) 100,00 %
25.03.2020 19:02 9,2 C 7,8 C 7,2 C 41 % 1023,1 hPa 0,0 l/m 0 min 0 min 7 W/m 12,9 km/h (3 Bft) 100,00 %
25.03.2020 19:04 9,1 C 7,8 C 7,2 C 42 % 1023,1 hPa 0,0 l/m 0 min 0 min 5 W/m 3,2 km/h (1 Bft) 100,00 %
25.03.2020 19:06 9,1 C 7,8 C 7,2 C 42 % 1023,1 hPa 0,0 l/m 0 min 0 min 5 W/m 3,2 km/h (1 Bft) 100,00 %
25.03.2020 19:08 9,0 C 7,8 C 7,2 C 42 % 1023,1 hPa 0,0 l/m 0 min 0 min 2 W/m 0,0 km/h (0 Bft) 100,00 %
25.03.2020 19:10 9,0 C 7,8 C 6,7 C 42 % 1023,1 hPa 0,0 l/m 0 min 0 min 0 W/m 3,2 km/h (1 Bft) 97,87 %
25.03.2020 19:12 8,9 C 7,8 C 6,7 C 42 % 1023,1 hPa 0,0 l/m 0 min 0 min 0 W/m 12,9 km/h (3 Bft) 100,00 %
25.03.2020 19:14 8,9 C 7,8 C 6,7 C 41 % 1023,1 hPa 0,0 l/m 0 min 0 min 0 W/m 12,9 km/h (3 Bft) 100,00 %
25.03.2020 19:16 8,8 C 7,8 C 6,7 C 42 % 1023,1 hPa 0,0 l/m 0 min 0 min 0 W/m 12,9 km/h (3 Bft) 100,00 %
25.03.2020 19:18 8,8 C 7,8 C 6,7 C 42 % 1023,1 hPa 0,0 l/m 0 min 0 min 0 W/m 6,4 km/h (2 Bft) 100,00 %
25.03.2020 19:20 8,8 C 7,8 C 6,7 C 42 % 1023,0 hPa 0,0 l/m 0 min 0 min 0 W/m 9,7 km/h (2 Bft) 100,00 %
25.03.2020 19:22 8,8 C 7,2 C 6,7 C 42 % 1023,1 hPa 0,0 l/m 0 min 0 min 0 W/m 6,4 km/h (2 Bft) 97,87 %
25.03.2020 19:24 8,7 C 7,2 C 6,7 C 42 % 1023,1 hPa 0,0 l/m 0 min 0 min 0 W/m 9,7 km/h (2 Bft) 97,83 %
25.03.2020 19:26 8,7 C 7,8 C 6,7 C 42 % 1023,1 hPa 0,0 l/m 0 min 0 min 0 W/m 6,4 km/h (2 Bft) 100,00 %
25.03.2020 19:28 8,6 C 7,8 C 6,7 C 41 % 1023,1 hPa 0,0 l/m 0 min 0 min 0 W/m 6,4 km/h (2 Bft) 100,00 %
25.03.2020 19:30 8,6 C 7,8 C 6,7 C 41 % 1023,1 hPa 0,0 l/m 0 min 0 min 0 W/m 9,7 km/h (2 Bft) 100,00 %
25.03.2020 19:32 8,6 C 7,8 C 6,7 C 41 % 1023,1 hPa 0,0 l/m 0 min 0 min 0 W/m 9,7 km/h (2 Bft) 100,00 %
25.03.2020 19:34 8,6 C 7,8 C 6,7 C 42 % 1023,1 hPa 0,0 l/m 0 min 0 min 0 W/m 9,7 km/h (2 Bft) 97,87 %
25.03.2020 19:36 8,6 C 7,8 C 6,7 C 41 % 1023,2 hPa 0,0 l/m 0 min 0 min 0 W/m 9,7 km/h (2 Bft) 100,00 %
25.03.2020 19:38 8,6 C 7,8 C 6,7 C 41 % 1023,2 hPa 0,0 l/m 0 min 0 min 0 W/m 12,9 km/h (3 Bft) 100,00 %
25.03.2020 19:40 8,6 C 7,8 C 6,7 C 41 % 1023,2 hPa 0,0 l/m 0 min 0 min 0 W/m 6,4 km/h (2 Bft) 100,00 %
25.03.2020 19:42 8,5 C 7,8 C 6,7 C 41 % 1023,2 hPa 0,0 l/m 0 min 0 min 0 W/m 6,4 km/h (2 Bft) 97,87 %
25.03.2020 19:44 8,5 C 7,2 C 6,7 C 42 % 1023,2 hPa 0,0 l/m 0 min 0 min 0 W/m 9,7 km/h (2 Bft) 97,87 %
25.03.2020 19:46 8,5 C 7,2 C 6,7 C 41 % 1023,2 hPa 0,0 l/m 0 min 0 min 0 W/m 6,4 km/h (2 Bft) 95,74 %
25.03.2020 19:48 8,4 C 7,2 C 6,7 C 41 % 1023,2 hPa 0,0 l/m 0 min 0 min 0 W/m 6,4 km/h (2 Bft) 93,48 %
25.03.2020 19:50 8,4 C 7,2 C 6,7 C 41 % 1023,3 hPa 0,0 l/m 0 min 0 min 0 W/m 9,7 km/h (2 Bft) 95,74 %
25.03.2020 19:52 8,4 C 7,2 C 6,7 C 41 % 1023,4 hPa 0,0 l/m 0 min 0 min 0 W/m 9,7 km/h (2 Bft) 95,74 %
25.03.2020 19:54 8,4 C 7,2 C 6,7 C 41 % 1023,3 hPa 0,0 l/m 0 min 0 min 0 W/m 9,7 km/h (2 Bft) 95,74 %
25.03.2020 19:56 8,4 C 7,2 C 6,7 C 41 % 1023,4 hPa 0,0 l/m 0 min 0 min 0 W/m 12,9 km/h (3 Bft) 95,74 %
25.03.2020 19:58 8,3 C 7,2 C 6,7 C 40 % 1023,4 hPa 0,0 l/m 0 min 0 min 0 W/m 9,7 km/h (2 Bft) 95,74 %
25.03.2020 20:00 8,3 C 7,2 C 6,7 C 40 % 1023,4 hPa 0,0 l/m 0 min 0 min 0 W/m 9,7 km/h (2 Bft) 91,30 %
25.03.2020 20:02 8,3 C 7,2 C 6,7 C 41 % 1023,4 hPa 0,0 l/m 0 min 0 min 0 W/m 3,2 km/h (1 Bft) 93,62 %
25.03.2020 20:04 8,3 C 7,2 C 6,7 C 40 % 1023,4 hPa 0,0 l/m 0 min 0 min 0 W/m 6,4 km/h (2 Bft) 95,74 %
25.03.2020 20:06 8,3 C 7,2 C 6,7 C 41 % 1023,4 hPa 0,0 l/m 0 min 0 min 0 W/m 6,4 km/h (2 Bft) 93,62 %
25.03.2020 20:08 8,3 C 7,2 C 6,1 C 40 % 1023,5 hPa 0,0 l/m 0 min 0 min 0 W/m 9,7 km/h (2 Bft) 95,74 %
25.03.2020 20:09 8,3 C 7,2 C 6,7 C 40 % 1023,4 hPa 0,0 l/m 0 min 0 min 0 W/m 22,5 km/h (4 Bft) 93,62 %
25.03.2020 20:12 8,2 C 7,2 C 6,1 C 40 % 1023,5 hPa 0,0 l/m 0 min 0 min 0 W/m 6,4 km/h (2 Bft) 91,30 %
25.03.2020 20:14 8,2 C 7,2 C 6,1 C 40 % 1023,5 hPa 0,0 l/m 0 min 0 min 0 W/m 12,9 km/h (3 Bft) 93,62 %
25.03.2020 20:16 8,2 C 7,2 C 6,1 C 40 % 1023,4 hPa 0,0 l/m 0 min 0 min 0 W/m 6,4 km/h (2 Bft) 93,62 %
25.03.2020 20:18 8,2 C 7,2 C 6,1 C 40 % 1023,5 hPa 0,0 l/m 0 min 0 min 0 W/m 6,4 km/h (2 Bft) 92,68 %
25.03.2020 20:20 8,2 C 7,2 C 6,1 C 40 % 1023,4 hPa 0,0 l/m 0 min 0 min 0 W/m 6,4 km/h (2 Bft) 91,67 %
25.03.2020 20:22 8,2 C 7,2 C 6,1 C 40 % 1023,4 hPa 0,0 l/m 0 min 0 min 0 W/m 9,7 km/h (2 Bft) 93,75 %
25.03.2020 20:24 8,1 C 7,2 C 6,1 C 40 % 1023,4 hPa 0,0 l/m 0 min 0 min 0 W/m 16,1 km/h (3 Bft) 91,49 %
25.03.2020 20:26 8,1 C 7,2 C 6,1 C 40 % 1023,4 hPa 0,0 l/m 0 min 0 min 0 W/m 9,7 km/h (2 Bft) 93,62 %
25.03.2020 20:28 8,1 C 7,2 C 6,1 C 40 % 1023,5 hPa 0,0 l/m 0 min 0 min 0 W/m 9,7 km/h (2 Bft) 93,62 %
25.03.2020 20:30 8,1 C 7,2 C 6,1 C 40 % 1023,5 hPa 0,0 l/m 0 min 0 min 0 W/m 9,7 km/h (2 Bft) 92,45 %
25.03.2020 20:32 8,1 C 7,2 C 6,1 C 39 % 1023,5 hPa 0,0 l/m 0 min 0 min 0 W/m 19,3 km/h (3 Bft) 93,62 %
25.03.2020 20:34 8,1 C 7,2 C 6,1 C 39 % 1023,6 hPa 0,0 l/m 0 min 0 min 0 W/m 19,3 km/h (3 Bft) 93,48 %
25.03.2020 20:36 8,1 C 7,2 C 6,1 C 39 % 1023,5 hPa 0,0 l/m 0 min 0 min 0 W/m 9,7 km/h (2 Bft) 93,62 %
25.03.2020 20:38 8,0 C 7,2 C 6,1 C 40 % 1023,6 hPa 0,0 l/m 0 min 0 min 0 W/m 9,7 km/h (2 Bft) 95,74 %
25.03.2020 20:40 8,0 C 6,7 C 6,1 C 40 % 1023,6 hPa 0,0 l/m 0 min 0 min 0 W/m 6,4 km/h (2 Bft) 93,62 %
25.03.2020 20:42 8,0 C 7,2 C 6,1 C 40 % 1023,6 hPa 0,0 l/m 0 min 0 min 0 W/m 6,4 km/h (2 Bft) 95,74 %
25.03.2020 20:44 8,0 C 7,2 C 6,1 C 40 % 1023,7 hPa 0,0 l/m 0 min 0 min 0 W/m 6,4 km/h (2 Bft) 94,74 %
25.03.2020 20:46 7,9 C 6,7 C 6,1 C 40 % 1023,7 hPa 0,0 l/m 0 min 0 min 0 W/m 3,2 km/h (1 Bft) 97,87 %
25.03.2020 20:48 7,9 C 6,7 C 6,1 C 41 % 1023,7 hPa 0,0 l/m 0 min 0 min 0 W/m 3,2 km/h (1 Bft) 97,83 %
25.03.2020 20:50 7,9 C 6,7 C 5,6 C 41 % 1023,7 hPa 0,0 l/m 0 min 0 min 0 W/m 6,4 km/h (2 Bft) 100,00 %
25.03.2020 20:52 7,9 C 6,7 C 5,6 C 42 % 1023,7 hPa 0,0 l/m 0 min 0 min 0 W/m 6,4 km/h (2 Bft) 100,00 %
25.03.2020 20:54 7,8 C 6,7 C 5,6 C 43 % 1023,7 hPa 0,0 l/m 0 min 0 min 0 W/m 9,7 km/h (2 Bft) 100,00 %
25.03.2020 20:56 7,8 C 6,7 C 5,6 C 43 % 1023,6 hPa 0,0 l/m 0 min 0 min 0 W/m 12,9 km/h (3 Bft) 100,00 %
25.03.2020 20:58 7,8 C 6,7 C 5,6 C 44 % 1023,6 hPa 0,0 l/m 0 min 0 min 0 W/m 9,7 km/h (2 Bft) 100,00 %
25.03.2020 21:00 7,7 C 6,7 C 5,6 C 45 % 1023,7 hPa 0,0 l/m 0 min 0 min 0 W/m 9,7 km/h (2 Bft) 100,00 %
25.03.2020 21:02 7,7 C 6,7 C 5,6 C 46 % 1023,7 hPa 0,0 l/m 0 min 0 min 0 W/m 6,4 km/h (2 Bft) 97,87 %
25.03.2020 21:04 7,6 C 6,1 C 5,6 C 46 % 1023,7 hPa 0,0 l/m 0 min 0 min 0 W/m 6,4 km/h (2 Bft) 100,00 %
25.03.2020 21:06 7,6 C 6,1 C 5,6 C 46 % 1023,7 hPa 0,0 l/m 0 min 0 min 0 W/m 9,7 km/h (2 Bft) 100,00 %
25.03.2020 21:08 7,6 C 6,1 C 5,6 C 47 % 1023,7 hPa 0,0 l/m 0 min 0 min 0 W/m 9,7 km/h (2 Bft) 100,00 %
25.03.2020 21:10 7,5 C 6,7 C 5,6 C 47 % 1023,7 hPa 0,0 l/m 0 min 0 min 0 W/m 9,7 km/h (2 Bft) 100,00 %
25.03.2020 21:12 7,5 C 6,1 C 5,6 C 47 % 1023,7 hPa 0,0 l/m 0 min 0 min 0 W/m 3,2 km/h (1 Bft) 100,00 %
25.03.2020 21:14 7,4 C 6,1 C 5,6 C 48 % 1023,7 hPa 0,0 l/m 0 min 0 min 0 W/m 3,2 km/h (1 Bft) 100,00 %
25.03.2020 21:16 7,4 C 6,1 C 5,6 C 48 % 1023,7 hPa 0,0 l/m 0 min 0 min 0 W/m 6,4 km/h (2 Bft) 100,00 %
25.03.2020 21:18 7,4 C 6,1 C 5,6 C 48 % 1023,7 hPa 0,0 l/m 0 min 0 min 0 W/m 6,4 km/h (2 Bft) 97,87 %
25.03.2020 21:20 7,4 C 6,1 C 5,6 C 48 % 1023,8 hPa 0,0 l/m 0 min 0 min 0 W/m 9,7 km/h (2 Bft) 100,00 %
25.03.2020 21:22 7,3 C 6,1 C 5,6 C 48 % 1023,9 hPa 0,0 l/m 0 min 0 min 0 W/m 3,2 km/h (1 Bft) 100,00 %
25.03.2020 21:24 7,3 C 6,1 C 5,6 C 48 % 1023,9 hPa 0,0 l/m 0 min 0 min 0 W/m 3,2 km/h (1 Bft) 100,00 %
25.03.2020 21:26 7,3 C 6,1 C 5,6 C 48 % 1023,9 hPa 0,0 l/m 0 min 0 min 0 W/m 6,4 km/h (2 Bft) 97,87 %
25.03.2020 21:28 7,3 C 6,1 C 5,6 C 48 % 1023,9 hPa 0,0 l/m 0 min 0 min 0 W/m 3,2 km/h (1 Bft) 100,00 %
25.03.2020 21:30 7,3 C 6,1 C 5,0 C 48 % 1023,9 hPa 0,0 l/m 0 min 0 min 0 W/m 9,7 km/h (2 Bft) 100,00 %
25.03.2020 21:32 7,2 C 6,1 C 5,0 C 48 % 1023,9 hPa 0,0 l/m 0 min 0 min 0 W/m 3,2 km/h (1 Bft) 100,00 %
25.03.2020 21:34 7,2 C 6,1 C 5,0 C 48 % 1024,0 hPa 0,0 l/m 0 min 0 min 0 W/m 6,4 km/h (2 Bft) 97,87 %
25.03.2020 21:36 7,2 C 5,6 C 5,0 C 49 % 1024,0 hPa 0,0 l/m 0 min 0 min 0 W/m 6,4 km/h (2 Bft) 97,87 %
25.03.2020 21:38 7,1 C 5,6 C 5,0 C 49 % 1023,9 hPa 0,0 l/m 0 min 0 min 0 W/m 6,4 km/h (2 Bft) 100,00 %
25.03.2020 21:40 7,1 C 5,6 C 5,0 C 49 % 1024,0 hPa 0,0 l/m 0 min 0 min 0 W/m 6,4 km/h (2 Bft) 97,87 %
25.03.2020 21:42 7,0 C 5,6 C 5,0 C 49 % 1024,0 hPa 0,0 l/m 0 min 0 min 0 W/m 9,7 km/h (2 Bft) 100,00 %
25.03.2020 21:44 7,0 C 5,6 C 5,0 C 50 % 1024,0 hPa 0,0 l/m 0 min 0 min 0 W/m 6,4 km/h (2 Bft) 100,00 %
25.03.2020 21:46 6,9 C 5,6 C 5,0 C 49 % 1024,0 hPa 0,0 l/m 0 min 0 min 0 W/m 9,7 km/h (2 Bft) 97,87 %
25.03.2020 21:48 6,9 C 5,6 C 5,0 C 50 % 1024,1 hPa 0,0 l/m 0 min 0 min 0 W/m 9,7 km/h (2 Bft) 100,00 %
25.03.2020 21:50 6,9 C 6,1 C 5,0 C 49 % 1024,0 hPa 0,0 l/m 0 min 0 min 0 W/m 6,4 km/h (2 Bft) 100,00 %
25.03.2020 21:52 6,8 C 5,6 C 5,0 C 49 % 1024,1 hPa 0,0 l/m 0 min 0 min 0 W/m 6,4 km/h (2 Bft) 100,00 %
25.03.2020 21:54 6,8 C 5,6 C 5,0 C 50 % 1024,1 hPa 0,0 l/m 0 min 0 min 0 W/m 9,7 km/h (2 Bft) 100,00 %
25.03.2020 21:56 6,8 C 5,6 C 5,0 C 50 % 1024,1 hPa 0,0 l/m 0 min 0 min 0 W/m 9,7 km/h (2 Bft) 100,00 %
25.03.2020 21:58 6,8 C 5,6 C 5,0 C 50 % 1024,0 hPa 0,0 l/m 0 min 0 min 0 W/m 6,4 km/h (2 Bft) 100,00 %
25.03.2020 22:00 6,7 C 5,6 C 5,0 C 50 % 1024,1 hPa 0,0 l/m 0 min 0 min 0 W/m 3,2 km/h (1 Bft) 97,87 %
25.03.2020 22:02 6,7 C 5,6 C 5,0 C 50 % 1024,1 hPa 0,0 l/m 0 min 0 min 0 W/m 3,2 km/h (1 Bft) 100,00 %
25.03.2020 22:04 6,7 C 5,6 C 4,4 C 50 % 1024,1 hPa 0,0 l/m 0 min 0 min 0 W/m 3,2 km/h (1 Bft) 100,00 %
25.03.2020 22:06 6,6 C 5,6 C 4,4 C 51 % 1024,1 hPa 0,0 l/m 0 min 0 min 0 W/m 6,4 km/h (2 Bft) 100,00 %
25.03.2020 22:08 6,6 C 5,0 C 4,4 C 51 % 1024,1 hPa 0,0 l/m 0 min 0 min 0 W/m 6,4 km/h (2 Bft) 97,87 %
25.03.2020 22:10 6,5 C 5,0 C 4,4 C 51 % 1024,1 hPa 0,0 l/m 0 min 0 min 0 W/m 6,4 km/h (2 Bft) 100,00 %
25.03.2020 22:12 6,4 C 5,0 C 4,4 C 51 % 1024,1 hPa 0,0 l/m 0 min 0 min 0 W/m 6,4 km/h (2 Bft) 100,00 %
25.03.2020 22:14 6,4 C 5,0 C 4,4 C 51 % 1024,1 hPa 0,0 l/m 0 min 0 min 0 W/m 6,4 km/h (2 Bft) 97,87 %
25.03.2020 22:16 6,3 C 5,0 C 4,4 C 51 % 1024,2 hPa 0,0 l/m 0 min 0 min 0 W/m 3,2 km/h (1 Bft) 97,87 %
25.03.2020 22:18 6,3 C 5,0 C 4,4 C 51 % 1024,2 hPa 0,0 l/m 0 min 0 min 0 W/m 3,2 km/h (1 Bft) 97,83 %
25.03.2020 22:20 6,3 C 5,0 C 4,4 C 51 % 1024,2 hPa 0,0 l/m 0 min 0 min 0 W/m 3,2 km/h (1 Bft) 95,74 %
25.03.2020 22:22 6,2 C 5,0 C 4,4 C 51 % 1024,2 hPa 0,0 l/m 0 min 0 min 0 W/m 6,4 km/h (2 Bft) 97,87 %
25.03.2020 22:24 6,2 C 5,0 C 3,9 C 52 % 1024,3 hPa 0,0 l/m 0 min 0 min 0 W/m 9,7 km/h (2 Bft) 95,74 %
25.03.2020 22:26 6,2 C 4,4 C 3,9 C 52 % 1024,2 hPa 0,0 l/m 0 min 0 min 0 W/m 6,4 km/h (2 Bft) 97,87 %
25.03.2020 22:28 6,1 C 4,4 C 3,9 C 52 % 1024,3 hPa 0,0 l/m 0 min 0 min 0 W/m 6,4 km/h (2 Bft) 97,87 %
25.03.2020 22:30 6,1 C 4,4 C 3,9 C 52 % 1024,3 hPa 0,0 l/m 0 min 0 min 0 W/m 3,2 km/h (1 Bft) 97,83 %
25.03.2020 22:32 6,0 C 4,4 C 3,3 C 52 % 1024,3 hPa 0,0 l/m 0 min 0 min 0 W/m 3,2 km/h (1 Bft) 95,74 %
25.03.2020 22:34 5,9 C 4,4 C 3,3 C 52 % 1024,3 hPa 0,0 l/m 0 min 0 min 0 W/m 0,0 km/h (0 Bft) 97,87 %
25.03.2020 22:36 5,9 C 4,4 C 3,3 C 52 % 1024,3 hPa 0,0 l/m 0 min 0 min 0 W/m 0,0 km/h (0 Bft) 97,87 %
25.03.2020 22:38 5,9 C 4,4 C 3,3 C 52 % 1024,3 hPa 0,0 l/m 0 min 0 min 0 W/m 6,4 km/h (2 Bft) 97,37 %
25.03.2020 22:40 5,8 C 4,4 C 3,3 C 52 % 1024,4 hPa 0,0 l/m 0 min 0 min 0 W/m 6,4 km/h (2 Bft) 95,74 %
25.03.2020 22:42 5,7 C 3,9 C 3,3 C 53 % 1024,3 hPa 0,0 l/m 0 min 0 min 0 W/m 3,2 km/h (1 Bft) 97,87 %
25.03.2020 22:44 5,7 C 3,9 C 3,3 C 53 % 1024,3 hPa 0,0 l/m 0 min 0 min 0 W/m 3,2 km/h (1 Bft) 93,48 %
25.03.2020 22:46 5,6 C 3,9 C 3,3 C 53 % 1024,3 hPa 0,0 l/m 0 min 0 min 0 W/m 3,2 km/h (1 Bft) 92,00 %
25.03.2020 22:48 5,6 C 3,9 C 3,3 C 53 % 1024,4 hPa 0,0 l/m 0 min 0 min 0 W/m 3,2 km/h (1 Bft) 93,62 %
25.03.2020 22:50 5,5 C 3,9 C 2,8 C 53 % 1024,4 hPa 0,0 l/m 0 min 0 min 0 W/m 3,2 km/h (1 Bft) 93,62 %
25.03.2020 22:52 5,4 C 3,9 C 2,8 C 53 % 1024,4 hPa 0,0 l/m 0 min 0 min 0 W/m 0,0 km/h (0 Bft) 97,87 %
25.03.2020 22:54 5,4 C 3,9 C 2,8 C 53 % 1024,5 hPa 0,0 l/m 0 min 0 min 0 W/m 3,2 km/h (1 Bft) 95,65 %
25.03.2020 22:56 5,3 C 3,9 C 2,8 C 53 % 1024,4 hPa 0,0 l/m 0 min 0 min 0 W/m 3,2 km/h (1 Bft) 95,74 %
25.03.2020 22:58 5,3 C 3,3 C 2,8 C 53 % 1024,4 hPa 0,0 l/m 0 min 0 min 0 W/m 3,2 km/h (1 Bft) 95,74 %
25.03.2020 23:00 5,2 C 3,3 C 2,8 C 52 % 1024,4 hPa 0,0 l/m 0 min 0 min 0 W/m 3,2 km/h (1 Bft) 93,62 %
25.03.2020 23:02 5,1 C 3,9 C 2,8 C 52 % 1024,4 hPa 0,0 l/m 0 min 0 min 0 W/m 6,4 km/h (2 Bft) 93,62 %
25.03.2020 23:04 5,1 C 3,9 C 2,8 C 51 % 1024,4 hPa 0,0 l/m 0 min 0 min 0 W/m 3,2 km/h (1 Bft) 95,74 %
25.03.2020 23:06 5,1 C 3,9 C 2,8 C 51 % 1024,4 hPa 0,0 l/m 0 min 0 min 0 W/m 9,7 km/h (2 Bft) 91,30 %
25.03.2020 23:08 5,0 C 3,9 C 3,3 C 51 % 1024,3 hPa 0,0 l/m 0 min 0 min 0 W/m 6,4 km/h (2 Bft) 95,74 %
25.03.2020 23:10 5,0 C 3,9 C 3,3 C 50 % 1024,4 hPa 0,0 l/m 0 min 0 min 0 W/m 0,0 km/h (0 Bft) 95,24 %
25.03.2020 23:12 4,9 C 3,9 C 3,3 C 50 % 1024,3 hPa 0,0 l/m 0 min 0 min 0 W/m 6,4 km/h (2 Bft) 95,74 %
25.03.2020 23:14 4,9 C 3,9 C 3,3 C 50 % 1024,3 hPa 0,0 l/m 0 min 0 min 0 W/m 3,2 km/h (1 Bft) 97,87 %
25.03.2020 23:16 4,9 C 3,9 C 3,3 C 50 % 1024,3 hPa 0,0 l/m 0 min 0 min 0 W/m 0,0 km/h (0 Bft) 95,74 %
25.03.2020 23:18 4,9 C 3,9 C 2,8 C 50 % 1024,3 hPa 0,0 l/m 0 min 0 min 0 W/m 0,0 km/h (0 Bft) 95,74 %
25.03.2020 23:20 4,9 C 3,9 C 2,8 C 50 % 1024,3 hPa 0,0 l/m 0 min 0 min 0 W/m 0,0 km/h (0 Bft) 95,74 %
25.03.2020 23:22 4,8 C 3,3 C 2,8 C 50 % 1024,3 hPa 0,0 l/m 0 min 0 min 0 W/m 0,0 km/h (0 Bft) 97,87 %
25.03.2020 23:24 4,8 C 3,3 C 2,8 C 50 % 1024,3 hPa 0,0 l/m 0 min 0 min 0 W/m 0,0 km/h (0 Bft) 97,87 %
25.03.2020 23:26 4,8 C 3,3 C 2,2 C 51 % 1024,3 hPa 0,0 l/m 0 min 0 min 0 W/m 0,0 km/h (0 Bft) 93,75 %
25.03.2020 23:28 4,8 C 2,8 C 2,2 C 51 % 1024,3 hPa 0,0 l/m 0 min 0 min 0 W/m 0,0 km/h (0 Bft) 91,49 %
25.03.2020 23:30 4,7 C 2,8 C 2,2 C 51 % 1024,3 hPa 0,0 l/m 0 min 0 min 0 W/m 0,0 km/h (0 Bft) 95,83 %
25.03.2020 23:32 4,7 C 2,8 C 2,2 C 51 % 1024,3 hPa 0,0 l/m 0 min 0 min 0 W/m 0,0 km/h (0 Bft) 93,75 %
25.03.2020 23:34 4,7 C 3,3 C 2,2 C 51 % 1024,3 hPa 0,0 l/m 0 min 0 min 0 W/m 0,0 km/h (0 Bft) 95,74 %
25.03.2020 23:36 4,6 C 3,3 C 2,2 C 51 % 1024,3 hPa 0,0 l/m 0 min 0 min 0 W/m 0,0 km/h (0 Bft) 97,87 %
25.03.2020 23:38 4,6 C 3,3 C 2,2 C 51 % 1024,3 hPa 0,0 l/m 0 min 0 min 0 W/m 0,0 km/h (0 Bft) 97,87 %
25.03.2020 23:40 4,5 C 2,8 C 1,7 C 51 % 1024,3 hPa 0,0 l/m 0 min 0 min 0 W/m 0,0 km/h (0 Bft) 100,00 %
25.03.2020 23:42 4,5 C 2,8 C 1,7 C 51 % 1024,3 hPa 0,0 l/m 0 min 0 min 0 W/m 0,0 km/h (0 Bft) 91,30 %
25.03.2020 23:44 4,4 C 2,8 C 1,7 C 52 % 1024,2 hPa 0,0 l/m 0 min 0 min 0 W/m 0,0 km/h (0 Bft) 93,62 %
25.03.2020 23:46 4,4 C 2,8 C 1,7 C 52 % 1024,2 hPa 0,0 l/m 0 min 0 min 0 W/m 0,0 km/h (0 Bft) 92,86 %
25.03.2020 23:48 4,3 C 2,2 C 1,7 C 52 % 1024,2 hPa 0,0 l/m 0 min 0 min 0 W/m 0,0 km/h (0 Bft) 91,49 %
25.03.2020 23:50 4,3 C 2,2 C 1,1 C 52 % 1024,2 hPa 0,0 l/m 0 min 0 min 0 W/m 0,0 km/h (0 Bft) 95,74 %
25.03.2020 23:52 4,3 C 2,2 C 1,1 C 52 % 1024,2 hPa 0,0 l/m 0 min 0 min 0 W/m 0,0 km/h (0 Bft) 91,49 %
25.03.2020 23:54 4,2 C 2,2 C 1,1 C 53 % 1024,2 hPa 0,0 l/m 0 min 0 min 0 W/m 0,0 km/h (0 Bft) 95,83 %
25.03.2020 23:56 4,2 C 2,2 C 1,1 C 53 % 1024,1 hPa 0,0 l/m 0 min 0 min 0 W/m 0,0 km/h (0 Bft) 89,58 %
25.03.2020 23:58 4,1 C 2,2 C 1,1 C 54 % 1024,1 hPa 0,0 l/m 0 min 0 min 0 W/m 0,0 km/h (0 Bft) 97,96 %
_ Min-Zeit 07:40 06:50 06:20 12:56 18:56 - - - - 00:00 00:56
Minimum _ -0,4 C -1,7 C -2,8 C 34 % 1023,0 hPa - - - - 0,0 km/h (0 Bft) 57,45 %
_ Max-Zeit 14:14 13:06 13:06 07:56 00:00 00:00 12:08 00:00 12:30 09:22 00:14
Maximum _ 14,0 C 20,0 C 21,7 C 65 % 1029,6 hPa 0,0 l/m 4 min 0 min 763 W/m 25,7 km/h
O-SO (4 Bft)
100,00 %
Durchschnitt _ 6,9 C 7,9 C 5,9 C 46 % 1026,6 hPa #0,0 l/m #8:26 h #0 min. 403 W/m 6,1 km/h (2 Bft) 97,32 %
© 2020 W. Hausmann